Time,TemperatureF,DewpointF,PressureIn,WindDirection,WindDirectionDegrees,WindSpeedMPH,WindSpeedGustMPH,Humidity,HourlyPrecipIn,Conditions,Clouds,dailyrainin,SoftwareType,DateUTC
2013-07-06 00:01:00,69.8,66.4,29.98,SE,137,0.0,0.0,89,0.00,,---,0.02,VWS V14.00,2013-07-06 04:01:00,
2013-07-06 00:06:00,69.9,66.5,29.98,SE,137,0.0,0.0,89,0.00,,---,0.00,VWS V14.00,2013-07-06 04:06:00,
2013-07-06 00:11:00,69.6,66.2,29.98,SE,137,0.0,0.0,89,0.00,,---,0.00,VWS V14.00,2013-07-06 04:11:00,
2013-07-06 00:16:00,69.4,66.0,29.98,SE,138,0.0,0.0,89,0.00,,---,0.00,VWS V14.00,2013-07-06 04:16:00,
2013-07-06 00:17:00,69.4,66.0,29.98,SE,138,0.0,0.0,89,0.00,,---,0.00,VWS V14.00,2013-07-06 04:17:00,
2013-07-06 00:21:00,69.4,66.0,29.98,SE,138,0.0,0.0,89,0.00,,---,0.00,VWS V14.00,2013-07-06 04:21:00,
2013-07-06 00:22:00,69.3,65.9,29.98,SE,138,0.0,0.0,89,0.00,,---,0.00,VWS V14.00,2013-07-06 04:22:00,
2013-07-06 00:26:00,69.4,66.3,29.98,SE,138,0.0,0.0,90,0.00,,---,0.00,VWS V14.00,2013-07-06 04:26:00,
2013-07-06 00:27:00,69.3,66.2,29.98,SE,138,0.0,0.0,90,0.00,,---,0.00,VWS V14.00,2013-07-06 04:27:00,
2013-07-06 00:28:00,69.3,66.2,29.98,SE,138,0.0,0.0,90,0.00,,---,0.00,VWS V14.00,2013-07-06 04:28:00,
2013-07-06 00:31:00,69.1,66.1,29.99,SE,138,0.0,0.0,90,0.00,,---,0.00,VWS V14.00,2013-07-06 04:31:00,
2013-07-06 00:32:00,69.1,66.1,29.99,SE,138,0.0,0.0,90,0.00,,---,0.00,VWS V14.00,2013-07-06 04:32:00,
2013-07-06 00:33:00,69.1,66.1,29.99,SE,138,0.0,0.0,90,0.00,,---,0.00,VWS V14.00,2013-07-06 04:33:00,
2013-07-06 00:36:00,69.3,66.6,29.99,SE,138,0.0,0.0,91,0.00,,---,0.00,VWS V14.00,2013-07-06 04:36:00,
2013-07-06 00:37:00,69.3,66.6,29.99,SE,138,0.0,0.0,91,0.00,,---,0.00,VWS V14.00,2013-07-06 04:37:00,
2013-07-06 00:38:00,69.3,66.6,29.99,SE,138,0.0,0.0,91,0.00,,---,0.00,VWS V14.00,2013-07-06 04:38:00,
2013-07-06 00:41:00,69.3,66.2,29.99,SE,138,0.0,0.0,90,0.00,,---,0.00,VWS V14.00,2013-07-06 04:41:00,
2013-07-06 00:42:00,69.1,66.1,29.99,SE,138,0.0,0.0,90,0.00,,---,0.00,VWS V14.00,2013-07-06 04:42:00,
2013-07-06 00:43:00,69.1,66.4,29.99,SE,138,0.0,0.0,91,0.00,,---,0.00,VWS V14.00,2013-07-06 04:43:00,
2013-07-06 00:46:00,68.9,66.2,29.99,SE,138,0.0,0.0,91,0.00,,---,0.00,VWS V14.00,2013-07-06 04:46:00,
2013-07-06 00:47:00,68.9,66.2,29.99,SE,138,0.0,0.0,91,0.00,,---,0.00,VWS V14.00,2013-07-06 04:47:00,
2013-07-06 00:48:00,68.8,66.1,29.99,SE,138,0.0,0.0,91,0.00,,---,0.00,VWS V14.00,2013-07-06 04:48:00,
2013-07-06 00:52:00,68.9,66.2,29.99,SE,138,0.0,0.0,91,0.00,,---,0.00,VWS V14.00,2013-07-06 04:52:00,
2013-07-06 00:53:00,68.9,66.5,29.99,SE,138,0.0,0.0,92,0.00,,---,0.00,VWS V14.00,2013-07-06 04:53:00,
2013-07-06 00:57:00,68.6,65.9,29.99,SE,138,0.0,0.0,91,0.00,,---,0.00,VWS V14.00,2013-07-06 04:57:00,
2013-07-06 00:58:00,68.4,65.7,29.99,SE,138,0.0,0.0,91,0.00,,---,0.00,VWS V14.00,2013-07-06 04:58:00,
2013-07-06 01:02:00,68.3,65.9,29.99,SE,138,0.0,0.0,92,0.00,,---,0.00,VWS V14.00,2013-07-06 05:02:00,
2013-07-06 01:03:00,68.3,65.9,29.99,SE,138,0.0,0.0,92,0.00,,---,0.00,VWS V14.00,2013-07-06 05:03:00,
2013-07-06 01:07:00,68.3,65.9,29.99,SE,138,0.0,0.0,92,0.00,,---,0.00,VWS V14.00,2013-07-06 05:07:00,
2013-07-06 01:08:00,68.3,65.9,29.99,SE,138,0.0,0.0,92,0.00,,---,0.00,VWS V14.00,2013-07-06 05:08:00,
2013-07-06 01:12:00,68.1,65.7,29.99,SE,138,0.0,0.0,92,0.00,,---,0.00,VWS V14.00,2013-07-06 05:12:00,
2013-07-06 01:13:00,68.1,65.7,29.99,SE,138,0.0,0.0,92,0.00,,---,0.00,VWS V14.00,2013-07-06 05:13:00,
2013-07-06 01:17:00,67.9,65.8,29.99,SE,138,0.0,0.0,93,0.00,,---,0.00,VWS V14.00,2013-07-06 05:17:00,
2013-07-06 01:18:00,67.9,65.8,29.99,SE,138,0.0,0.0,93,0.00,,---,0.00,VWS V14.00,2013-07-06 05:18:00,
2013-07-06 01:23:00,67.9,65.8,29.99,SE,138,0.0,0.0,93,0.00,,---,0.00,VWS V14.00,2013-07-06 05:23:00,
2013-07-06 01:28:00,67.8,65.7,29.99,SE,138,0.0,0.0,93,0.00,,---,0.00,VWS V14.00,2013-07-06 05:28:00,
2013-07-06 01:29:00,67.8,65.7,29.99,SE,138,0.0,0.0,93,0.00,,---,0.00,VWS V14.00,2013-07-06 05:29:00,
2013-07-06 01:33:00,67.9,65.8,29.99,SE,138,0.0,0.0,93,0.00,,---,0.00,VWS V14.00,2013-07-06 05:33:00,
2013-07-06 01:34:00,67.9,65.8,29.99,SE,138,0.0,0.0,93,0.00,,---,0.00,VWS V14.00,2013-07-06 05:34:00,
2013-07-06 01:35:00,67.8,65.7,29.99,SE,138,0.0,0.0,93,0.00,,---,0.00,VWS V14.00,2013-07-06 05:35:00,
2013-07-06 01:38:00,67.8,65.7,29.99,SE,138,0.0,0.0,93,0.00,,---,0.00,VWS V14.00,2013-07-06 05:38:00,
2013-07-06 01:39:00,67.8,65.7,29.99,SE,138,0.0,0.0,93,0.00,,---,0.00,VWS V14.00,2013-07-06 05:39:00,
2013-07-06 01:40:00,67.8,66.0,29.99,SE,138,0.0,0.0,94,0.00,,---,0.00,VWS V14.00,2013-07-06 05:40:00,
2013-07-06 01:43:00,67.8,66.0,29.99,SE,138,0.0,0.0,94,0.00,,---,0.00,VWS V14.00,2013-07-06 05:43:00,
2013-07-06 01:44:00,67.8,66.0,29.99,SE,138,0.0,0.0,94,0.00,,---,0.00,VWS V14.00,2013-07-06 05:44:00,
2013-07-06 01:45:00,67.8,66.0,29.99,SE,138,0.0,0.0,94,0.00,,---,0.00,VWS V14.00,2013-07-06 05:45:00,
2013-07-06 01:48:00,67.6,65.8,29.99,SE,138,0.0,0.0,94,0.00,,---,0.00,VWS V14.00,2013-07-06 05:48:00,
2013-07-06 01:49:00,67.6,65.8,29.99,SE,138,0.0,0.0,94,0.00,,---,0.00,VWS V14.00,2013-07-06 05:49:00,
2013-07-06 01:51:00,67.6,65.8,29.99,SE,138,0.0,0.0,94,0.00,,---,0.00,VWS V14.00,2013-07-06 05:51:00,
2013-07-06 01:53:00,67.6,65.8,29.99,SE,138,0.0,0.0,94,0.00,,---,0.00,VWS V14.00,2013-07-06 05:53:00,
2013-07-06 01:54:00,67.6,65.8,29.99,SE,138,0.0,0.0,94,0.00,,---,0.00,VWS V14.00,2013-07-06 05:54:00,
2013-07-06 01:57:00,67.6,65.8,29.99,SE,138,0.0,0.0,94,0.00,,---,0.00,VWS V14.00,2013-07-06 05:57:00,
2013-07-06 01:58:00,67.6,65.8,29.99,SE,138,0.0,0.0,94,0.00,,---,0.00,VWS V14.00,2013-07-06 05:58:00,
2013-07-06 01:59:00,67.6,65.8,29.99,SE,138,0.0,0.0,94,0.00,,---,0.00,VWS V14.00,2013-07-06 05:59:00,
2013-07-06 02:00:00,67.6,65.8,29.99,SE,138,0.0,0.0,94,0.00,,---,0.00,VWS V14.00,2013-07-06 06:00:00,
2013-07-06 02:02:00,67.4,65.6,29.99,SE,138,0.0,0.0,94,0.00,,---,0.00,VWS V14.00,2013-07-06 06:02:00,
2013-07-06 02:04:00,67.4,65.6,29.99,SE,138,0.0,0.0,94,0.00,,---,0.00,VWS V14.00,2013-07-06 06:04:00,
2013-07-06 02:05:00,67.3,65.5,29.99,SE,138,0.0,0.0,94,0.00,,---,0.00,VWS V14.00,2013-07-06 06:05:00,
2013-07-06 02:07:00,67.3,65.5,29.99,SE,138,0.0,0.0,94,0.00,,---,0.00,VWS V14.00,2013-07-06 06:07:00,
2013-07-06 02:09:00,67.3,65.5,29.99,SE,138,0.0,0.0,94,0.00,,---,0.00,VWS V14.00,2013-07-06 06:09:00,
2013-07-06 02:10:00,67.3,65.5,29.99,SE,138,0.0,0.0,94,0.00,,---,0.00,VWS V14.00,2013-07-06 06:10:00,
2013-07-06 02:13:00,67.4,65.9,29.99,SE,138,0.0,0.0,95,0.00,,---,0.00,VWS V14.00,2013-07-06 06:13:00,
2013-07-06 02:14:00,67.4,65.9,29.99,SE,138,0.0,0.0,95,0.00,,---,0.00,VWS V14.00,2013-07-06 06:14:00,
2013-07-06 02:15:00,67.3,65.8,29.99,SE,138,0.0,0.0,95,0.00,,---,0.00,VWS V14.00,2013-07-06 06:15:00,
2013-07-06 02:18:00,67.4,65.9,29.98,SE,138,0.0,0.0,95,0.00,,---,0.00,VWS V14.00,2013-07-06 06:18:00,
2013-07-06 02:19:00,67.4,65.9,29.98,SE,138,0.0,0.0,95,0.00,,---,0.00,VWS V14.00,2013-07-06 06:19:00,
2013-07-06 02:20:00,67.3,65.8,29.98,SE,138,0.0,0.0,95,0.00,,---,0.00,VWS V14.00,2013-07-06 06:20:00,
2013-07-06 02:23:00,66.9,65.4,29.98,SE,138,0.0,0.0,95,0.00,,---,0.00,VWS V14.00,2013-07-06 06:23:00,
2013-07-06 02:24:00,66.9,65.1,29.98,SE,138,0.0,0.0,94,0.00,,---,0.00,VWS V14.00,2013-07-06 06:24:00,
2013-07-06 02:25:00,66.9,65.1,29.98,SE,138,0.0,0.0,94,0.00,,---,0.00,VWS V14.00,2013-07-06 06:25:00,
2013-07-06 02:28:00,66.6,65.1,29.98,SE,138,0.0,0.0,95,0.00,,---,0.00,VWS V14.00,2013-07-06 06:28:00,
2013-07-06 02:29:00,66.6,65.1,29.98,SE,138,0.0,0.0,95,0.00,,---,0.00,VWS V14.00,2013-07-06 06:29:00,
2013-07-06 02:30:00,66.8,65.3,29.98,SE,138,0.0,0.0,95,0.00,,---,0.00,VWS V14.00,2013-07-06 06:30:00,
2013-07-06 02:33:00,67.1,65.6,29.98,SE,138,0.0,0.0,95,0.00,,---,0.00,VWS V14.00,2013-07-06 06:33:00,
2013-07-06 02:34:00,67.1,65.6,29.98,SE,138,0.0,0.0,95,0.00,,---,0.00,VWS V14.00,2013-07-06 06:34:00,
2013-07-06 02:35:00,67.1,65.6,29.98,SE,138,0.0,0.0,95,0.00,,---,0.00,VWS V14.00,2013-07-06 06:35:00,
2013-07-06 02:38:00,67.1,65.6,29.98,SE,138,0.0,0.0,95,0.00,,---,0.00,VWS V14.00,2013-07-06 06:38:00,
2013-07-06 02:39:00,67.1,65.6,29.98,SE,138,0.0,0.0,95,0.00,,---,0.00,VWS V14.00,2013-07-06 06:39:00,
2013-07-06 02:40:00,67.1,65.6,29.98,SE,138,0.0,0.0,95,0.00,,---,0.00,VWS V14.00,2013-07-06 06:40:00,
2013-07-06 02:43:00,67.1,65.6,29.98,SE,138,0.0,0.0,95,0.00,,---,0.00,VWS V14.00,2013-07-06 06:43:00,
2013-07-06 02:44:00,67.3,65.8,29.98,SE,138,0.0,0.0,95,0.00,,---,0.00,VWS V14.00,2013-07-06 06:44:00,
2013-07-06 02:45:00,67.3,65.8,29.99,SE,138,0.0,0.0,95,0.00,,---,0.00,VWS V14.00,2013-07-06 06:45:00,
2013-07-06 02:48:00,67.3,65.8,29.99,SE,138,0.0,0.0,95,0.00,,---,0.00,VWS V14.00,2013-07-06 06:48:00,
2013-07-06 02:49:00,67.3,65.8,29.99,SE,138,0.0,0.0,95,0.00,,---,0.00,VWS V14.00,2013-07-06 06:49:00,
2013-07-06 02:50:00,66.9,65.4,29.99,SE,138,0.0,0.0,95,0.00,,---,0.00,VWS V14.00,2013-07-06 06:50:00,
2013-07-06 02:51:00,66.8,65.3,29.99,SE,138,0.0,0.0,95,0.00,,---,0.00,VWS V14.00,2013-07-06 06:51:00,
2013-07-06 02:53:00,66.6,65.1,29.99,SE,138,0.0,0.0,95,0.00,,---,0.00,VWS V14.00,2013-07-06 06:53:00,
2013-07-06 02:55:00,66.6,65.1,29.99,SE,138,0.0,0.0,95,0.00,,---,0.00,VWS V14.00,2013-07-06 06:55:00,
2013-07-06 02:56:00,66.6,65.1,29.99,SE,138,0.0,0.0,95,0.00,,---,0.00,VWS V14.00,2013-07-06 06:56:00,
2013-07-06 02:59:00,66.4,64.9,29.99,SE,138,0.0,0.0,95,0.00,,---,0.00,VWS V14.00,2013-07-06 06:59:00,
2013-07-06 03:00:00,66.4,64.9,29.99,SE,138,0.0,0.0,95,0.00,,---,0.00,VWS V14.00,2013-07-06 07:00:00,
2013-07-06 03:01:00,66.4,64.9,29.99,SE,138,0.0,0.0,95,0.00,,---,0.00,VWS V14.00,2013-07-06 07:01:00,
2013-07-06 03:04:00,66.8,65.6,29.99,SE,138,0.0,0.0,96,0.00,,---,0.00,VWS V14.00,2013-07-06 07:04:00,
2013-07-06 03:05:00,66.9,65.7,29.99,SE,138,0.0,0.0,96,0.00,,---,0.00,VWS V14.00,2013-07-06 07:05:00,
2013-07-06 03:06:00,67.1,65.9,29.99,SE,138,0.0,0.0,96,0.00,,---,0.00,VWS V14.00,2013-07-06 07:06:00,
2013-07-06 03:07:00,67.1,65.9,29.99,SE,138,0.0,0.0,96,0.00,,---,0.00,VWS V14.00,2013-07-06 07:07:00,
2013-07-06 03:09:00,66.9,65.7,29.99,SE,138,0.0,0.0,96,0.00,,---,0.00,VWS V14.00,2013-07-06 07:09:00,
2013-07-06 03:10:00,66.8,65.6,29.99,SE,138,0.0,0.0,96,0.00,,---,0.00,VWS V14.00,2013-07-06 07:10:00,
2013-07-06 03:11:00,66.6,65.4,29.99,SE,138,0.0,0.0,96,0.00,,---,0.00,VWS V14.00,2013-07-06 07:11:00,
2013-07-06 03:12:00,66.6,65.4,29.99,SE,138,0.0,0.0,96,0.00,,---,0.00,VWS V14.00,2013-07-06 07:12:00,
2013-07-06 03:14:00,66.4,65.2,29.99,SE,138,0.0,0.0,96,0.00,,---,0.00,VWS V14.00,2013-07-06 07:14:00,
2013-07-06 03:15:00,66.6,65.4,29.99,SE,138,0.0,0.0,96,0.00,,---,0.00,VWS V14.00,2013-07-06 07:15:00,
2013-07-06 03:16:00,66.6,65.4,29.99,SE,138,0.0,0.0,96,0.00,,---,0.00,VWS V14.00,2013-07-06 07:16:00,
2013-07-06 03:17:00,66.6,65.4,29.99,SE,138,0.0,0.0,96,0.00,,---,0.00,VWS V14.00,2013-07-06 07:17:00,
2013-07-06 03:19:00,66.4,65.2,29.99,SE,138,0.0,0.0,96,0.00,,---,0.00,VWS V14.00,2013-07-06 07:19:00,
2013-07-06 03:20:00,66.3,65.1,29.99,SE,138,0.0,0.0,96,0.00,,---,0.00,VWS V14.00,2013-07-06 07:20:00,
2013-07-06 03:21:00,66.3,65.1,29.99,SE,138,0.0,0.0,96,0.00,,---,0.00,VWS V14.00,2013-07-06 07:21:00,
2013-07-06 03:22:00,66.6,65.4,29.99,SE,138,0.0,0.0,96,0.00,,---,0.00,VWS V14.00,2013-07-06 07:22:00,
2013-07-06 03:24:00,66.8,65.6,29.99,SE,138,0.0,0.0,96,0.00,,---,0.00,VWS V14.00,2013-07-06 07:24:00,
2013-07-06 03:26:00,66.8,65.6,29.99,SE,138,0.0,0.0,96,0.00,,---,0.00,VWS V14.00,2013-07-06 07:26:00,
2013-07-06 03:27:00,66.8,65.6,29.99,SE,138,0.0,0.0,96,0.00,,---,0.00,VWS V14.00,2013-07-06 07:27:00,
2013-07-06 03:29:00,66.8,65.6,29.99,SE,138,0.0,0.0,96,0.00,,---,0.00,VWS V14.00,2013-07-06 07:29:00,
2013-07-06 03:31:00,66.8,65.6,29.98,SE,138,0.0,0.0,96,0.00,,---,0.00,VWS V14.00,2013-07-06 07:31:00,
2013-07-06 03:33:00,66.9,65.7,29.98,SE,138,0.0,0.0,96,0.00,,---,0.00,VWS V14.00,2013-07-06 07:33:00,
2013-07-06 03:35:00,66.9,65.7,29.98,SE,138,0.0,0.0,96,0.00,,---,0.00,VWS V14.00,2013-07-06 07:35:00,
2013-07-06 03:36:00,66.9,65.7,29.98,SE,138,0.0,0.0,96,0.00,,---,0.00,VWS V14.00,2013-07-06 07:36:00,
2013-07-06 03:38:00,66.9,65.7,29.98,SE,138,0.0,0.0,96,0.00,,---,0.00,VWS V14.00,2013-07-06 07:38:00,
2013-07-06 03:40:00,66.9,65.7,29.98,SE,138,0.0,0.0,96,0.00,,---,0.00,VWS V14.00,2013-07-06 07:40:00,
2013-07-06 03:41:00,66.8,65.6,29.98,SE,138,0.0,0.0,96,0.00,,---,0.00,VWS V14.00,2013-07-06 07:41:00,
2013-07-06 03:42:00,66.6,65.4,29.98,SE,138,0.0,0.0,96,0.00,,---,0.00,VWS V14.00,2013-07-06 07:42:00,
2013-07-06 03:43:00,66.4,65.2,29.98,SE,138,0.0,0.0,96,0.00,,---,0.00,VWS V14.00,2013-07-06 07:43:00,
2013-07-06 03:45:00,66.4,65.2,29.98,SE,138,0.0,0.0,96,0.00,,---,0.00,VWS V14.00,2013-07-06 07:45:00,
2013-07-06 03:46:00,66.6,65.4,29.98,SE,138,0.0,0.0,96,0.00,,---,0.00,VWS V14.00,2013-07-06 07:46:00,
2013-07-06 03:47:00,66.6,65.4,29.98,SE,138,0.0,0.0,96,0.00,,---,0.00,VWS V14.00,2013-07-06 07:47:00,
2013-07-06 03:48:00,66.6,65.7,29.98,SE,138,0.0,0.0,97,0.00,,---,0.00,VWS V14.00,2013-07-06 07:48:00,
2013-07-06 03:50:00,66.8,65.9,29.98,SE,138,0.0,0.0,97,0.00,,---,0.00,VWS V14.00,2013-07-06 07:50:00,
2013-07-06 03:51:00,66.8,65.9,29.98,SE,138,0.0,0.0,97,0.00,,---,0.00,VWS V14.00,2013-07-06 07:51:00,
2013-07-06 03:52:00,66.6,65.7,29.98,SE,138,0.0,0.0,97,0.00,,---,0.00,VWS V14.00,2013-07-06 07:52:00,
2013-07-06 03:53:00,66.8,65.9,29.98,SE,138,0.0,0.0,97,0.00,,---,0.00,VWS V14.00,2013-07-06 07:53:00,
2013-07-06 03:55:00,66.9,66.3,29.98,SE,138,0.0,0.0,98,0.00,,---,0.00,VWS V14.00,2013-07-06 07:55:00,
2013-07-06 03:56:00,66.8,66.2,29.98,SE,138,0.0,0.0,98,0.00,,---,0.00,VWS V14.00,2013-07-06 07:56:00,
2013-07-06 03:57:00,66.9,66.3,29.98,SE,138,0.0,0.0,98,0.00,,---,0.00,VWS V14.00,2013-07-06 07:57:00,
2013-07-06 03:58:00,66.8,66.2,29.98,SE,138,0.0,0.0,98,0.00,,---,0.00,VWS V14.00,2013-07-06 07:58:00,
2013-07-06 04:00:00,66.8,66.2,29.98,SE,138,0.0,0.0,98,0.00,,---,0.00,VWS V14.00,2013-07-06 08:00:00,
2013-07-06 04:02:00,66.9,66.3,29.98,SE,138,0.0,0.0,98,0.00,,---,0.00,VWS V14.00,2013-07-06 08:02:00,
2013-07-06 04:03:00,67.1,66.5,29.98,SE,138,0.0,0.0,98,0.00,,---,0.00,VWS V14.00,2013-07-06 08:03:00,
2013-07-06 04:06:00,67.3,67.0,29.98,SE,138,0.0,0.0,99,0.00,,---,0.00,VWS V14.00,2013-07-06 08:06:00,
2013-07-06 04:07:00,66.9,66.6,29.98,SE,138,0.0,0.0,99,0.00,,---,0.00,VWS V14.00,2013-07-06 08:07:00,
2013-07-06 04:08:00,66.8,66.2,29.98,SE,138,0.0,0.0,98,0.00,,---,0.00,VWS V14.00,2013-07-06 08:08:00,
2013-07-06 04:11:00,66.6,66.0,29.98,SE,145,0.0,0.0,98,0.00,,---,0.00,VWS V14.00,2013-07-06 08:11:00,
2013-07-06 04:12:00,66.8,66.2,29.98,SE,145,0.0,0.0,98,0.00,,---,0.00,VWS V14.00,2013-07-06 08:12:00,
2013-07-06 04:13:00,66.9,66.3,29.98,SE,144,0.0,0.0,98,0.00,,---,0.00,VWS V14.00,2013-07-06 08:13:00,
2013-07-06 04:14:00,67.1,66.5,29.98,SE,144,0.0,0.0,98,0.00,,---,0.00,VWS V14.00,2013-07-06 08:14:00,
2013-07-06 04:16:00,67.4,67.1,29.98,SE,144,0.0,0.0,99,0.00,,---,0.00,VWS V14.00,2013-07-06 08:16:00,
2013-07-06 04:17:00,67.4,67.1,29.98,SE,144,0.0,0.0,99,0.00,,---,0.00,VWS V14.00,2013-07-06 08:17:00,
2013-07-06 04:18:00,67.4,67.1,29.98,SE,144,0.0,0.0,99,0.00,,---,0.00,VWS V14.00,2013-07-06 08:18:00,
2013-07-06 04:19:00,67.4,67.1,29.98,SE,144,0.0,0.0,99,0.00,,---,0.00,VWS V14.00,2013-07-06 08:19:00,
2013-07-06 04:21:00,67.6,67.3,29.98,SE,145,0.0,0.0,99,0.00,,---,0.00,VWS V14.00,2013-07-06 08:21:00,
2013-07-06 04:22:00,67.6,67.3,29.98,SE,144,0.0,0.0,99,0.00,,---,0.00,VWS V14.00,2013-07-06 08:22:00,
2013-07-06 04:23:00,67.6,67.3,29.98,SE,144,0.0,0.0,99,0.00,,---,0.00,VWS V14.00,2013-07-06 08:23:00,
2013-07-06 04:24:00,67.6,67.3,29.98,SE,144,0.0,0.0,99,0.00,,---,0.00,VWS V14.00,2013-07-06 08:24:00,
2013-07-06 04:27:00,67.6,67.3,29.98,SE,145,0.0,0.0,99,0.00,,---,0.00,VWS V14.00,2013-07-06 08:27:00,
2013-07-06 04:28:00,67.6,67.3,29.98,SE,145,0.0,0.0,99,0.00,,---,0.00,VWS V14.00,2013-07-06 08:28:00,
2013-07-06 04:29:00,67.6,67.3,29.98,SE,145,0.0,0.0,99,0.00,,---,0.00,VWS V14.00,2013-07-06 08:29:00,
2013-07-06 04:32:00,67.6,67.3,29.98,SE,145,0.0,0.0,99,0.00,,---,0.00,VWS V14.00,2013-07-06 08:32:00,
2013-07-06 04:33:00,67.8,67.5,29.98,SE,145,0.0,0.0,99,0.00,,---,0.00,VWS V14.00,2013-07-06 08:33:00,
2013-07-06 04:34:00,67.8,67.5,29.98,SE,145,0.0,0.0,99,0.00,,---,0.00,VWS V14.00,2013-07-06 08:34:00,
2013-07-06 04:37:00,67.8,67.5,29.98,SE,145,0.0,0.0,99,0.00,,---,0.00,VWS V14.00,2013-07-06 08:37:00,
2013-07-06 04:38:00,67.8,67.5,29.98,SE,144,0.0,0.0,99,0.00,,---,0.00,VWS V14.00,2013-07-06 08:38:00,
2013-07-06 04:39:00,67.6,67.3,29.98,SE,145,0.0,0.0,99,0.00,,---,0.00,VWS V14.00,2013-07-06 08:39:00,
2013-07-06 04:42:00,67.6,67.3,29.98,SE,145,0.0,0.0,99,0.00,,---,0.00,VWS V14.00,2013-07-06 08:42:00,
2013-07-06 04:43:00,67.6,67.3,29.98,SE,145,0.0,0.0,99,0.00,,---,0.00,VWS V14.00,2013-07-06 08:43:00,
2013-07-06 04:44:00,67.4,67.1,29.98,SE,145,0.0,0.0,99,0.00,,---,0.00,VWS V14.00,2013-07-06 08:44:00,
2013-07-06 04:47:00,67.3,67.0,29.98,SE,144,0.0,0.0,99,0.00,,---,0.00,VWS V14.00,2013-07-06 08:47:00,
2013-07-06 04:48:00,67.3,67.0,29.98,SE,145,0.0,0.0,99,0.00,,---,0.00,VWS V14.00,2013-07-06 08:48:00,
2013-07-06 04:49:00,67.1,66.8,29.98,SE,145,0.0,0.0,99,0.00,,---,0.00,VWS V14.00,2013-07-06 08:49:00,
2013-07-06 04:52:00,66.6,66.0,29.98,SE,144,0.0,0.0,98,0.00,,---,0.00,VWS V14.00,2013-07-06 08:52:00,
2013-07-06 04:53:00,66.6,66.0,29.98,SE,144,0.0,0.0,98,0.00,,---,0.00,VWS V14.00,2013-07-06 08:53:00,
2013-07-06 04:54:00,66.6,66.3,29.98,SE,144,0.0,0.0,99,0.00,,---,0.00,VWS V14.00,2013-07-06 08:54:00,
2013-07-06 04:58:00,66.6,66.3,29.98,SE,144,0.0,0.0,99,0.00,,---,0.00,VWS V14.00,2013-07-06 08:58:00,
2013-07-06 04:59:00,66.6,66.3,29.98,SE,144,0.0,0.0,99,0.00,,---,0.00,VWS V14.00,2013-07-06 08:59:00,
2013-07-06 05:00:00,66.6,66.3,29.98,SE,144,0.0,0.0,99,0.00,,---,0.00,VWS V14.00,2013-07-06 09:00:00,
2013-07-06 05:03:00,66.9,66.6,29.98,SE,145,0.0,0.0,99,0.00,,---,0.00,VWS V14.00,2013-07-06 09:03:00,
2013-07-06 05:04:00,66.9,66.6,29.98,SE,144,0.0,0.0,99,0.00,,---,0.00,VWS V14.00,2013-07-06 09:04:00,
2013-07-06 05:05:00,66.8,66.5,29.98,SE,144,0.0,0.0,99,0.00,,---,0.00,VWS V14.00,2013-07-06 09:05:00,
2013-07-06 05:08:00,66.9,66.6,29.98,SE,145,0.0,0.0,99,0.00,,---,0.00,VWS V14.00,2013-07-06 09:08:00,
2013-07-06 05:09:00,66.9,66.6,29.98,SE,145,0.0,0.0,99,0.00,,---,0.00,VWS V14.00,2013-07-06 09:09:00,
2013-07-06 05:11:00,66.8,66.5,29.98,SE,144,0.0,0.0,99,0.00,,---,0.00,VWS V14.00,2013-07-06 09:11:00,
2013-07-06 05:13:00,66.9,66.6,29.98,SE,145,0.0,0.0,99,0.00,,---,0.00,VWS V14.00,2013-07-06 09:13:00,
2013-07-06 05:14:00,66.9,66.6,29.98,SE,145,0.0,0.0,99,0.00,,---,0.00,VWS V14.00,2013-07-06 09:14:00,
2013-07-06 05:16:00,66.9,66.6,29.98,SE,144,0.0,0.0,99,0.00,,---,0.00,VWS V14.00,2013-07-06 09:16:00,
2013-07-06 05:18:00,66.9,66.6,29.98,SE,145,0.0,0.0,99,0.00,,---,0.00,VWS V14.00,2013-07-06 09:18:00,
2013-07-06 05:19:00,66.6,66.3,29.98,SE,145,0.0,0.0,99,0.00,,---,0.00,VWS V14.00,2013-07-06 09:19:00,
2013-07-06 05:21:00,66.4,66.1,29.98,SE,144,0.0,0.0,99,0.00,,---,0.00,VWS V14.00,2013-07-06 09:21:00,
2013-07-06 05:23:00,66.6,66.3,29.98,SE,145,0.0,0.0,99,0.00,,---,0.00,VWS V14.00,2013-07-06 09:23:00,
2013-07-06 05:24:00,66.8,66.5,29.98,SE,145,0.0,0.0,99,0.00,,---,0.00,VWS V14.00,2013-07-06 09:24:00,
2013-07-06 05:25:00,66.9,66.6,29.98,SE,145,0.0,0.0,99,0.00,,---,0.00,VWS V14.00,2013-07-06 09:25:00,
2013-07-06 05:26:00,66.9,66.9,29.98,SE,144,0.0,0.0,100,0.00,,---,0.00,VWS V14.00,2013-07-06 09:26:00,
2013-07-06 05:28:00,66.9,66.9,29.98,SE,145,0.0,0.0,100,0.00,,---,0.00,VWS V14.00,2013-07-06 09:28:00,
2013-07-06 05:29:00,66.8,66.8,29.98,SE,144,0.0,0.0,100,0.00,,---,0.00,VWS V14.00,2013-07-06 09:29:00,
2013-07-06 05:30:00,66.8,66.8,29.98,SE,144,0.0,0.0,100,0.00,,---,0.00,VWS V14.00,2013-07-06 09:30:00,
2013-07-06 05:31:00,66.6,66.6,29.98,SE,145,0.0,0.0,100,0.00,,---,0.00,VWS V14.00,2013-07-06 09:31:00,
2013-07-06 05:33:00,66.4,66.4,29.98,SE,145,0.0,0.0,100,0.00,,---,0.00,VWS V14.00,2013-07-06 09:33:00,
2013-07-06 05:34:00,66.4,66.4,29.98,SE,145,0.0,0.0,100,0.00,,---,0.00,VWS V14.00,2013-07-06 09:34:00,
2013-07-06 05:35:00,66.4,66.4,29.98,SE,145,0.0,0.0,100,0.00,,---,0.00,VWS V14.00,2013-07-06 09:35:00,
2013-07-06 05:36:00,66.4,66.4,29.98,SE,145,0.0,0.0,100,0.00,,---,0.00,VWS V14.00,2013-07-06 09:36:00,
2013-07-06 05:38:00,66.3,66.3,29.98,SE,145,0.0,0.0,100,0.00,,---,0.00,VWS V14.00,2013-07-06 09:38:00,
2013-07-06 05:39:00,66.4,66.4,29.98,SE,145,0.0,0.0,100,0.00,,---,0.00,VWS V14.00,2013-07-06 09:39:00,
2013-07-06 05:40:00,66.4,66.4,29.98,SE,145,0.0,0.0,100,0.00,,---,0.00,VWS V14.00,2013-07-06 09:40:00,
2013-07-06 05:41:00,66.3,66.3,29.98,SE,144,0.0,0.0,100,0.00,,---,0.00,VWS V14.00,2013-07-06 09:41:00,
2013-07-06 05:43:00,66.1,66.1,29.98,SE,144,0.0,0.0,100,0.00,,---,0.00,VWS V14.00,2013-07-06 09:43:00,
2013-07-06 05:44:00,66.1,66.1,29.98,SE,145,0.0,0.0,100,0.00,,---,0.00,VWS V14.00,2013-07-06 09:44:00,
2013-07-06 05:45:00,66.1,66.1,29.98,SE,144,0.0,0.0,100,0.00,,---,0.00,VWS V14.00,2013-07-06 09:45:00,
2013-07-06 05:46:00,66.1,66.1,29.98,SE,145,0.0,0.0,100,0.00,,---,0.00,VWS V14.00,2013-07-06 09:46:00,
2013-07-06 05:48:00,66.3,66.3,29.98,SE,144,0.0,0.0,100,0.00,,---,0.00,VWS V14.00,2013-07-06 09:48:00,
2013-07-06 05:50:00,66.3,66.3,29.98,SE,144,0.0,0.0,100,0.00,,---,0.00,VWS V14.00,2013-07-06 09:50:00,
2013-07-06 05:51:00,66.4,66.4,29.98,SE,144,0.0,0.0,100,0.00,,---,0.00,VWS V14.00,2013-07-06 09:51:00,
2013-07-06 05:53:00,66.4,66.4,29.98,SE,144,0.0,0.0,100,0.00,,---,0.00,VWS V14.00,2013-07-06 09:53:00,
2013-07-06 05:55:00,66.6,66.6,29.98,SE,144,0.0,0.0,100,0.00,,---,0.00,VWS V14.00,2013-07-06 09:55:00,
2013-07-06 05:57:00,66.6,66.6,29.98,SE,144,0.0,0.0,100,0.00,,---,0.00,VWS V14.00,2013-07-06 09:57:00,
2013-07-06 05:59:00,66.3,66.3,29.98,SE,144,0.0,0.0,100,0.00,,---,0.00,VWS V14.00,2013-07-06 09:59:00,
2013-07-06 06:00:00,66.3,66.3,29.98,SE,145,0.0,0.0,100,0.00,,---,0.00,VWS V14.00,2013-07-06 10:00:00,
2013-07-06 06:02:00,66.3,66.3,29.98,SE,145,0.0,0.0,100,0.00,,---,0.00,VWS V14.00,2013-07-06 10:02:00,
2013-07-06 06:04:00,66.3,66.3,29.98,SE,145,0.0,0.0,100,0.00,,---,0.00,VWS V14.00,2013-07-06 10:04:00,
2013-07-06 06:05:00,66.3,66.3,29.98,SE,145,0.0,0.0,100,0.00,,---,0.00,VWS V14.00,2013-07-06 10:05:00,
2013-07-06 06:07:00,66.3,66.3,29.98,SE,144,0.0,0.0,100,0.00,,---,0.00,VWS V14.00,2013-07-06 10:07:00,
2013-07-06 06:09:00,66.3,66.3,29.98,SE,145,0.0,0.0,100,0.00,,---,0.00,VWS V14.00,2013-07-06 10:09:00,
2013-07-06 06:10:00,66.3,66.3,29.98,SE,144,0.0,0.0,100,0.00,,---,0.00,VWS V14.00,2013-07-06 10:10:00,
2013-07-06 06:13:00,66.4,66.4,29.98,SE,144,0.0,0.0,100,0.00,,---,0.00,VWS V14.00,2013-07-06 10:13:00,
2013-07-06 06:14:00,66.4,66.4,29.98,SE,144,0.0,0.0,100,0.00,,---,0.00,VWS V14.00,2013-07-06 10:14:00,
2013-07-06 06:15:00,66.6,66.6,29.99,SE,144,0.0,0.0,100,0.00,,---,0.00,VWS V14.00,2013-07-06 10:15:00,
2013-07-06 06:18:00,66.6,66.6,29.99,SE,145,0.0,0.0,100,0.00,,---,0.00,VWS V14.00,2013-07-06 10:18:00,
2013-07-06 06:19:00,66.6,66.6,29.99,SE,145,0.0,0.0,100,0.00,,---,0.00,VWS V14.00,2013-07-06 10:19:00,
2013-07-06 06:20:00,66.4,66.4,29.99,SE,145,0.0,0.0,100,0.00,,---,0.00,VWS V14.00,2013-07-06 10:20:00,
2013-07-06 06:23:00,66.3,66.3,29.99,SE,145,0.0,0.0,100,0.00,,---,0.00,VWS V14.00,2013-07-06 10:23:00,
2013-07-06 06:24:00,66.3,66.3,29.99,SE,145,0.0,0.0,100,0.00,,---,0.00,VWS V14.00,2013-07-06 10:24:00,
2013-07-06 06:25:00,66.1,66.1,29.99,SE,145,0.0,0.0,100,0.00,,---,0.00,VWS V14.00,2013-07-06 10:25:00,
2013-07-06 06:26:00,66.1,66.1,29.99,SE,145,0.0,0.0,100,0.00,,---,0.00,VWS V14.00,2013-07-06 10:26:00,
2013-07-06 06:28:00,66.1,66.1,29.99,SE,144,0.0,0.0,100,0.00,,---,0.00,VWS V14.00,2013-07-06 10:28:00,
2013-07-06 06:29:00,66.1,66.1,29.99,SE,144,0.0,0.0,100,0.00,,---,0.00,VWS V14.00,2013-07-06 10:29:00,
2013-07-06 06:30:00,66.1,66.1,29.99,SE,145,0.0,0.0,100,0.00,,---,0.00,VWS V14.00,2013-07-06 10:30:00,
2013-07-06 06:31:00,66.1,66.1,29.99,SE,144,0.0,0.0,100,0.00,,---,0.00,VWS V14.00,2013-07-06 10:31:00,
2013-07-06 06:34:00,66.1,66.1,29.99,SE,144,0.0,0.0,100,0.00,,---,0.00,VWS V14.00,2013-07-06 10:34:00,
2013-07-06 06:36:00,66.3,66.3,29.99,SE,144,0.0,0.0,100,0.00,,---,0.00,VWS V14.00,2013-07-06 10:36:00,
2013-07-06 06:39:00,66.3,66.3,29.99,SE,144,0.0,0.0,100,0.00,,---,0.00,VWS V14.00,2013-07-06 10:39:00,
2013-07-06 06:41:00,66.3,66.3,29.99,SE,145,0.0,0.0,100,0.00,,---,0.00,VWS V14.00,2013-07-06 10:41:00,
2013-07-06 06:44:00,66.0,66.0,29.99,SE,144,0.0,0.0,100,0.00,,---,0.00,VWS V14.00,2013-07-06 10:44:00,
2013-07-06 06:46:00,66.0,66.0,29.99,SE,144,0.0,0.0,100,0.00,,---,0.00,VWS V14.00,2013-07-06 10:46:00,
2013-07-06 06:49:00,66.1,66.1,29.99,SE,144,0.0,0.0,100,0.00,,---,0.00,VWS V14.00,2013-07-06 10:49:00,
2013-07-06 06:50:00,66.1,66.1,29.99,SE,144,0.0,0.0,100,0.00,,---,0.00,VWS V14.00,2013-07-06 10:50:00,
2013-07-06 06:51:00,66.1,66.1,29.99,SE,145,0.0,0.0,100,0.00,,---,0.00,VWS V14.00,2013-07-06 10:51:00,
2013-07-06 06:54:00,66.1,66.1,29.99,SE,145,0.0,0.0,100,0.00,,---,0.00,VWS V14.00,2013-07-06 10:54:00,
2013-07-06 06:55:00,66.1,66.1,29.99,SE,144,0.0,0.0,100,0.00,,---,0.00,VWS V14.00,2013-07-06 10:55:00,
2013-07-06 06:56:00,66.3,66.3,29.99,SE,145,0.0,0.0,100,0.00,,---,0.00,VWS V14.00,2013-07-06 10:56:00,
2013-07-06 06:59:00,66.3,66.3,29.99,SE,144,0.0,0.0,100,0.00,,---,0.00,VWS V14.00,2013-07-06 10:59:00,
2013-07-06 07:01:00,66.4,66.4,29.99,SE,145,0.0,0.0,100,0.00,,---,0.00,VWS V14.00,2013-07-06 11:01:00,
2013-07-06 07:02:00,66.4,66.4,29.99,SE,145,0.0,0.0,100,0.00,,---,0.00,VWS V14.00,2013-07-06 11:02:00,
2013-07-06 07:04:00,66.4,66.4,29.99,SE,144,0.0,0.0,100,0.00,,---,0.00,VWS V14.00,2013-07-06 11:04:00,
2013-07-06 07:06:00,66.4,66.4,29.99,SE,144,0.0,0.0,100,0.00,,---,0.00,VWS V14.00,2013-07-06 11:06:00,
2013-07-06 07:07:00,66.4,66.4,29.99,SE,144,0.0,0.0,100,0.00,,---,0.00,VWS V14.00,2013-07-06 11:07:00,
2013-07-06 07:10:00,66.4,66.4,29.99,SE,145,0.0,0.0,100,0.00,,---,0.00,VWS V14.00,2013-07-06 11:10:00,
2013-07-06 07:11:00,66.4,66.4,29.99,SE,145,0.0,0.0,100,0.00,,---,0.00,VWS V14.00,2013-07-06 11:11:00,
2013-07-06 07:12:00,66.4,66.4,29.99,SE,144,0.0,0.0,100,0.00,,---,0.00,VWS V14.00,2013-07-06 11:12:00,
2013-07-06 07:15:00,66.4,66.4,29.99,SE,144,0.0,0.0,100,0.00,,---,0.00,VWS V14.00,2013-07-06 11:15:00,
2013-07-06 07:16:00,66.6,66.6,29.99,SE,144,0.0,0.0,100,0.00,,---,0.00,VWS V14.00,2013-07-06 11:16:00,
2013-07-06 07:17:00,66.6,66.6,29.99,SE,145,0.0,0.0,100,0.00,,---,0.00,VWS V14.00,2013-07-06 11:17:00,
2013-07-06 07:20:00,66.6,66.6,29.99,SE,145,0.0,0.0,100,0.00,,---,0.00,VWS V14.00,2013-07-06 11:20:00,
2013-07-06 07:21:00,66.6,66.6,29.99,SE,145,0.0,0.0,100,0.00,,---,0.00,VWS V14.00,2013-07-06 11:21:00,
2013-07-06 07:22:00,66.6,66.6,29.99,SE,145,0.0,0.0,100,0.00,,---,0.00,VWS V14.00,2013-07-06 11:22:00,
2013-07-06 07:25:00,66.4,66.4,29.99,SE,145,0.0,0.0,100,0.00,,---,0.00,VWS V14.00,2013-07-06 11:25:00,
2013-07-06 07:26:00,66.6,66.6,29.99,SE,145,0.0,0.0,100,0.00,,---,0.00,VWS V14.00,2013-07-06 11:26:00,
2013-07-06 07:27:00,66.6,66.6,29.99,SE,138,0.0,0.0,100,0.00,,---,0.00,VWS V14.00,2013-07-06 11:27:00,
2013-07-06 07:28:00,66.8,66.8,29.99,SE,145,0.0,0.0,100,0.00,,---,0.00,VWS V14.00,2013-07-06 11:28:00,
2013-07-06 07:31:00,66.9,66.9,30.00,SE,145,0.0,0.0,100,0.00,,---,0.00,VWS V14.00,2013-07-06 11:31:00,
2013-07-06 07:32:00,66.9,66.9,30.00,SE,145,0.0,0.0,100,0.00,,---,0.00,VWS V14.00,2013-07-06 11:32:00,
2013-07-06 07:33:00,66.9,66.9,30.00,SE,145,0.0,0.0,100,0.00,,---,0.00,VWS V14.00,2013-07-06 11:33:00,
2013-07-06 07:36:00,67.3,67.3,30.00,SE,145,0.0,0.0,100,0.00,,---,0.00,VWS V14.00,2013-07-06 11:36:00,
2013-07-06 07:37:00,67.3,67.3,30.00,SE,145,0.0,0.0,100,0.00,,---,0.00,VWS V14.00,2013-07-06 11:37:00,
2013-07-06 07:38:00,67.4,67.4,30.00,SE,145,0.0,0.0,100,0.00,,---,0.00,VWS V14.00,2013-07-06 11:38:00,
2013-07-06 07:41:00,67.6,67.6,30.00,SE,145,0.0,0.0,100,0.00,,---,0.00,VWS V14.00,2013-07-06 11:41:00,
2013-07-06 07:42:00,67.6,67.6,30.00,SE,145,0.0,0.0,100,0.00,,---,0.00,VWS V14.00,2013-07-06 11:42:00,
2013-07-06 07:43:00,67.6,67.6,30.00,SE,145,0.0,0.0,100,0.00,,---,0.00,VWS V14.00,2013-07-06 11:43:00,
2013-07-06 07:46:00,67.8,67.8,30.00,SE,145,0.0,0.0,100,0.00,,---,0.00,VWS V14.00,2013-07-06 11:46:00,
2013-07-06 07:47:00,67.9,67.9,30.00,SE,145,0.0,0.0,100,0.00,,---,0.00,VWS V14.00,2013-07-06 11:47:00,
2013-07-06 07:48:00,67.9,67.9,30.00,SE,145,0.0,0.0,100,0.00,,---,0.00,VWS V14.00,2013-07-06 11:48:00,
2013-07-06 07:52:00,68.1,68.1,30.00,SE,145,0.0,0.0,100,0.00,,---,0.00,VWS V14.00,2013-07-06 11:52:00,
2013-07-06 07:53:00,68.3,68.3,30.00,SE,145,0.0,0.0,100,0.00,,---,0.00,VWS V14.00,2013-07-06 11:53:00,
2013-07-06 07:57:00,68.3,68.3,30.00,SE,145,0.0,0.0,100,0.00,,---,0.00,VWS V14.00,2013-07-06 11:57:00,
2013-07-06 07:58:00,68.3,68.3,30.00,SE,145,0.0,0.0,100,0.00,,---,0.00,VWS V14.00,2013-07-06 11:58:00,
2013-07-06 08:02:00,68.3,68.3,30.00,SE,145,0.0,0.0,100,0.00,,---,0.00,VWS V14.00,2013-07-06 12:02:00,
2013-07-06 08:03:00,68.4,68.4,30.00,SE,145,0.0,0.0,100,0.00,,---,0.00,VWS V14.00,2013-07-06 12:03:00,
2013-07-06 08:04:00,68.6,68.6,30.00,SE,145,0.0,0.0,100,0.00,,---,0.00,VWS V14.00,2013-07-06 12:04:00,
2013-07-06 08:07:00,68.6,68.6,30.00,SE,145,0.0,0.0,100,0.00,,---,0.00,VWS V14.00,2013-07-06 12:07:00,
2013-07-06 08:08:00,68.8,68.8,30.00,SE,145,0.0,0.0,100,0.00,,---,0.00,VWS V14.00,2013-07-06 12:08:00,
2013-07-06 08:09:00,68.8,68.8,30.00,SE,145,0.0,0.0,100,0.00,,---,0.00,VWS V14.00,2013-07-06 12:09:00,
2013-07-06 08:12:00,68.8,68.8,30.00,SE,145,0.0,0.0,100,0.00,,---,0.00,VWS V14.00,2013-07-06 12:12:00,
2013-07-06 08:13:00,68.8,68.8,30.00,SE,145,0.0,0.0,100,0.00,,---,0.00,VWS V14.00,2013-07-06 12:13:00,
2013-07-06 08:14:00,68.8,68.8,30.00,SE,145,0.0,0.0,100,0.00,,---,0.00,VWS V14.00,2013-07-06 12:14:00,
2013-07-06 08:17:00,68.8,68.8,30.00,SE,145,0.0,0.0,100,0.00,,---,0.00,VWS V14.00,2013-07-06 12:17:00,
2013-07-06 08:18:00,68.9,68.9,30.00,SE,145,0.0,0.0,100,0.00,,---,0.00,VWS V14.00,2013-07-06 12:18:00,
2013-07-06 08:19:00,69.1,69.1,30.00,SE,145,0.0,0.0,100,0.00,,---,0.00,VWS V14.00,2013-07-06 12:19:00,
2013-07-06 08:22:00,69.1,69.1,30.00,SE,145,0.0,0.0,100,0.00,,---,0.00,VWS V14.00,2013-07-06 12:22:00,
2013-07-06 08:23:00,69.3,69.3,30.00,SE,145,0.0,0.0,100,0.00,,---,0.00,VWS V14.00,2013-07-06 12:23:00,
2013-07-06 08:24:00,69.3,69.3,30.00,SE,145,0.0,0.0,100,0.00,,---,0.00,VWS V14.00,2013-07-06 12:24:00,
2013-07-06 08:27:00,69.8,69.8,30.00,SE,145,0.0,0.0,100,0.00,,---,0.00,VWS V14.00,2013-07-06 12:27:00,
2013-07-06 08:28:00,69.8,69.8,30.00,SE,145,0.0,0.0,100,0.00,,---,0.00,VWS V14.00,2013-07-06 12:28:00,
2013-07-06 08:29:00,69.8,69.8,30.00,SE,145,0.0,0.0,100,0.00,,---,0.00,VWS V14.00,2013-07-06 12:29:00,
2013-07-06 08:33:00,69.9,69.6,30.00,SE,145,0.0,0.0,99,0.00,,---,0.00,VWS V14.00,2013-07-06 12:33:00,
2013-07-06 08:34:00,69.9,69.6,30.00,SE,145,0.0,0.0,99,0.00,,---,0.00,VWS V14.00,2013-07-06 12:34:00,
2013-07-06 08:38:00,69.9,69.0,30.00,SE,145,0.0,0.0,97,0.00,,---,0.00,VWS V14.00,2013-07-06 12:38:00,
2013-07-06 08:39:00,70.1,69.2,30.00,SE,145,0.0,0.0,97,0.00,,---,0.00,VWS V14.00,2013-07-06 12:39:00,
2013-07-06 08:40:00,70.1,69.2,30.00,SE,145,0.0,0.0,97,0.00,,---,0.00,VWS V14.00,2013-07-06 12:40:00,
2013-07-06 08:43:00,70.4,69.2,30.00,SE,145,0.0,0.0,96,0.00,,---,0.00,VWS V14.00,2013-07-06 12:43:00,
2013-07-06 08:44:00,70.6,69.4,30.00,SE,145,0.0,0.0,96,0.00,,---,0.00,VWS V14.00,2013-07-06 12:44:00,
2013-07-06 08:45:00,70.6,69.4,30.00,SE,145,0.0,0.0,96,0.00,,---,0.00,VWS V14.00,2013-07-06 12:45:00,
2013-07-06 08:48:00,70.9,69.4,30.00,SE,145,0.0,0.0,95,0.00,,---,0.00,VWS V14.00,2013-07-06 12:48:00,
2013-07-06 08:49:00,71.1,69.3,30.00,SE,145,0.0,0.0,94,0.00,,---,0.00,VWS V14.00,2013-07-06 12:49:00,
2013-07-06 08:50:00,71.1,69.3,30.00,SE,145,0.0,0.0,94,0.00,,---,0.00,VWS V14.00,2013-07-06 12:50:00,
2013-07-06 08:53:00,71.3,69.2,30.00,WNW,292,0.0,0.0,93,0.00,,---,0.00,VWS V14.00,2013-07-06 12:53:00,
2013-07-06 08:55:00,71.1,68.7,30.00,West,278,0.0,0.0,92,0.00,,---,0.00,VWS V14.00,2013-07-06 12:55:00,
2013-07-06 08:58:00,71.3,68.9,30.00,West,278,0.0,0.0,92,0.00,,---,0.00,VWS V14.00,2013-07-06 12:58:00,
2013-07-06 09:00:00,71.5,68.4,30.01,West,280,0.0,0.0,90,0.00,,---,0.00,VWS V14.00,2013-07-06 13:00:00,
2013-07-06 09:03:00,72.0,68.9,30.01,WNW,285,0.0,0.0,90,0.00,,---,0.00,VWS V14.00,2013-07-06 13:03:00,
2013-07-06 09:05:00,72.1,68.7,30.01,WNW,289,0.0,0.0,89,0.00,,---,0.00,VWS V14.00,2013-07-06 13:05:00,
2013-07-06 09:06:00,72.3,68.9,30.01,WNW,288,0.0,0.0,89,0.00,,---,0.00,VWS V14.00,2013-07-06 13:06:00,
2013-07-06 09:08:00,72.8,69.4,30.01,WNW,289,0.0,0.0,89,0.00,,---,0.00,VWS V14.00,2013-07-06 13:08:00,
2013-07-06 09:10:00,73.0,68.9,30.01,West,278,0.0,0.0,87,0.00,,---,0.00,VWS V14.00,2013-07-06 13:10:00,
2013-07-06 09:11:00,73.0,68.9,30.01,SW,230,0.0,0.0,87,0.00,,---,0.00,VWS V14.00,2013-07-06 13:11:00,
2013-07-06 09:13:00,73.0,68.6,30.01,SSW,213,0.0,0.0,86,0.00,,---,0.00,VWS V14.00,2013-07-06 13:13:00,
2013-07-06 09:15:00,73.0,68.2,30.01,SSW,213,0.0,0.0,85,0.00,,---,0.00,VWS V14.00,2013-07-06 13:15:00,
2013-07-06 09:16:00,73.0,68.2,30.01,SSW,213,0.0,0.0,85,0.00,,---,0.00,VWS V14.00,2013-07-06 13:16:00,
2013-07-06 09:18:00,73.3,68.9,30.01,SSW,213,0.0,0.0,86,0.00,,---,0.00,VWS V14.00,2013-07-06 13:18:00,
2013-07-06 09:20:00,73.3,68.5,30.01,SSW,213,0.0,0.0,85,0.00,,---,0.00,VWS V14.00,2013-07-06 13:20:00,
2013-07-06 09:21:00,73.3,68.5,30.01,SSW,213,0.0,0.0,85,0.00,,---,0.00,VWS V14.00,2013-07-06 13:21:00,
2013-07-06 09:23:00,73.7,68.2,30.01,SSW,213,0.0,0.0,83,0.00,,---,0.00,VWS V14.00,2013-07-06 13:23:00,
2013-07-06 09:24:00,73.7,68.2,30.01,SSW,213,0.0,0.0,83,0.00,,---,0.00,VWS V14.00,2013-07-06 13:24:00,
2013-07-06 09:26:00,73.7,68.2,30.01,SSW,213,0.0,0.0,83,0.00,,---,0.00,VWS V14.00,2013-07-06 13:26:00,
2013-07-06 09:29:00,74.4,68.6,30.01,SSW,213,0.0,0.0,82,0.00,,---,0.00,VWS V14.00,2013-07-06 13:29:00,
2013-07-06 09:30:00,74.4,68.6,30.01,SSW,213,0.0,0.0,82,0.00,,---,0.00,VWS V14.00,2013-07-06 13:30:00,
2013-07-06 09:31:00,74.6,68.8,30.01,SSW,210,0.0,0.0,82,0.00,,---,0.00,VWS V14.00,2013-07-06 13:31:00,
2013-07-06 09:34:00,74.4,68.6,30.01,SSW,210,0.0,0.0,82,0.00,,---,0.00,VWS V14.00,2013-07-06 13:34:00,
2013-07-06 09:35:00,74.4,68.6,30.01,SSW,210,0.0,0.0,82,0.00,,---,0.00,VWS V14.00,2013-07-06 13:35:00,
2013-07-06 09:36:00,74.4,68.6,30.01,SSW,210,0.0,0.0,82,0.00,,---,0.00,VWS V14.00,2013-07-06 13:36:00,
2013-07-06 09:37:00,74.4,68.6,30.01,SSW,210,0.0,0.0,82,0.00,,---,0.00,VWS V14.00,2013-07-06 13:37:00,
2013-07-06 09:39:00,74.6,68.8,30.01,SSW,210,0.0,0.0,82,0.00,,---,0.00,VWS V14.00,2013-07-06 13:39:00,
2013-07-06 09:40:00,74.7,68.8,30.01,SSW,210,0.0,0.0,82,0.00,,---,0.00,VWS V14.00,2013-07-06 13:40:00,
2013-07-06 09:41:00,74.9,69.4,30.01,SSW,209,0.0,0.0,83,0.00,,---,0.00,VWS V14.00,2013-07-06 13:41:00,
2013-07-06 09:42:00,74.9,69.4,30.01,SSW,203,0.0,0.0,83,0.00,,---,0.00,VWS V14.00,2013-07-06 13:42:00,
2013-07-06 09:44:00,74.9,69.0,30.01,South,184,0.0,0.0,82,0.00,,---,0.00,VWS V14.00,2013-07-06 13:44:00,
2013-07-06 09:45:00,74.9,69.0,30.01,South,184,0.0,0.0,82,0.00,,---,0.00,VWS V14.00,2013-07-06 13:45:00,
2013-07-06 09:46:00,75.1,69.2,30.00,South,182,0.0,0.0,82,0.00,,---,0.00,VWS V14.00,2013-07-06 13:46:00,
2013-07-06 09:47:00,75.1,69.2,30.00,South,182,0.0,0.0,82,0.00,,---,0.00,VWS V14.00,2013-07-06 13:47:00,
2013-07-06 09:49:00,75.3,69.4,30.00,SSE,162,0.0,0.0,82,0.00,,---,0.00,VWS V14.00,2013-07-06 13:49:00,
2013-07-06 09:50:00,75.3,69.4,30.00,SSE,162,0.0,0.0,82,0.00,,---,0.00,VWS V14.00,2013-07-06 13:50:00,
2013-07-06 09:52:00,75.3,69.1,30.00,SSE,162,0.0,0.0,81,0.00,,---,0.00,VWS V14.00,2013-07-06 13:52:00,
2013-07-06 09:53:00,75.1,68.5,30.00,SSE,162,0.0,0.0,80,0.00,,---,0.00,VWS V14.00,2013-07-06 13:53:00,
2013-07-06 09:55:00,75.3,68.7,30.00,SSE,162,0.0,0.0,80,0.00,,---,0.00,VWS V14.00,2013-07-06 13:55:00,
2013-07-06 09:57:00,75.3,69.1,30.00,SSE,162,0.0,0.0,81,0.00,,---,0.00,VWS V14.00,2013-07-06 13:57:00,
2013-07-06 09:58:00,75.4,69.2,30.00,SSE,162,0.0,0.0,81,0.00,,---,0.00,VWS V14.00,2013-07-06 13:58:00,
2013-07-06 10:00:00,75.6,69.4,30.00,SSE,151,0.0,0.0,81,0.00,,---,0.00,VWS V14.00,2013-07-06 14:00:00,
2013-07-06 10:02:00,75.4,68.4,30.00,SSE,154,0.0,0.0,79,0.00,,---,0.00,VWS V14.00,2013-07-06 14:02:00,
2013-07-06 10:03:00,75.4,68.4,30.00,SSE,154,0.0,0.0,79,0.00,,---,0.00,VWS V14.00,2013-07-06 14:03:00,
2013-07-06 10:05:00,75.4,68.8,30.00,SSE,154,0.0,0.0,80,0.00,,---,0.00,VWS V14.00,2013-07-06 14:05:00,
2013-07-06 10:07:00,75.4,68.8,30.00,SSE,154,0.0,0.0,80,0.00,,---,0.00,VWS V14.00,2013-07-06 14:07:00,
2013-07-06 10:08:00,75.3,68.7,30.00,SSE,154,0.0,0.0,80,0.00,,---,0.00,VWS V14.00,2013-07-06 14:08:00,
2013-07-06 10:10:00,75.6,69.7,30.00,SSE,154,0.0,0.0,82,0.00,,---,0.00,VWS V14.00,2013-07-06 14:10:00,
2013-07-06 10:11:00,75.4,69.5,30.00,SSE,154,0.0,0.0,82,0.00,,---,0.00,VWS V14.00,2013-07-06 14:11:00,
2013-07-06 10:12:00,75.6,68.6,30.00,SSE,154,0.0,0.0,79,0.00,,---,0.00,VWS V14.00,2013-07-06 14:12:00,
2013-07-06 10:13:00,75.6,68.6,30.00,SSE,154,0.0,0.0,79,0.00,,---,0.00,VWS V14.00,2013-07-06 14:13:00,
2013-07-06 10:15:00,75.6,68.6,30.00,SSE,154,0.0,0.0,79,0.00,,---,0.00,VWS V14.00,2013-07-06 14:15:00,
2013-07-06 10:16:00,75.8,68.8,30.00,SSE,154,0.0,0.0,79,0.00,,---,0.00,VWS V14.00,2013-07-06 14:16:00,
2013-07-06 10:17:00,76.0,69.4,30.00,SSE,154,0.0,0.0,80,0.00,,---,0.00,VWS V14.00,2013-07-06 14:17:00,
2013-07-06 10:18:00,76.0,69.0,30.00,SSE,154,0.0,0.0,79,0.00,,---,0.00,VWS V14.00,2013-07-06 14:18:00,
2013-07-06 10:20:00,75.8,68.8,30.00,SSE,154,0.0,0.0,79,0.00,,---,0.00,VWS V14.00,2013-07-06 14:20:00,
2013-07-06 10:21:00,75.8,68.8,30.00,SSE,154,0.0,0.0,79,0.00,,---,0.00,VWS V14.00,2013-07-06 14:21:00,
2013-07-06 10:22:00,75.8,68.8,30.00,SSW,195,0.0,0.0,79,0.00,,---,0.00,VWS V14.00,2013-07-06 14:22:00,
2013-07-06 10:23:00,75.8,68.5,30.00,SSW,195,0.0,0.0,78,0.00,,---,0.00,VWS V14.00,2013-07-06 14:23:00,
2013-07-06 10:24:00,75.8,68.8,30.00,South,186,0.0,0.0,79,0.00,,---,0.00,VWS V14.00,2013-07-06 14:24:00,
2013-07-06 10:26:00,76.0,69.0,30.00,SSE,150,0.0,0.0,79,0.00,,---,0.00,VWS V14.00,2013-07-06 14:26:00,
2013-07-06 10:28:00,76.1,68.8,30.00,SSE,150,0.0,0.0,78,0.00,,---,0.00,VWS V14.00,2013-07-06 14:28:00,
2013-07-06 10:29:00,76.1,68.0,30.00,SSE,151,0.0,0.0,76,0.00,,---,0.00,VWS V14.00,2013-07-06 14:29:00,
2013-07-06 10:31:00,76.3,68.2,30.00,SSE,151,0.0,0.0,76,0.00,,---,0.00,VWS V14.00,2013-07-06 14:31:00,
2013-07-06 10:33:00,76.3,68.2,30.00,SSE,151,0.0,0.0,76,0.00,,---,0.00,VWS V14.00,2013-07-06 14:33:00,
2013-07-06 10:34:00,76.7,69.3,30.00,SSE,151,0.0,0.0,78,0.00,,---,0.00,VWS V14.00,2013-07-06 14:34:00,
2013-07-06 10:36:00,76.8,68.7,30.00,SSE,151,0.0,0.0,76,0.00,,---,0.00,VWS V14.00,2013-07-06 14:36:00,
2013-07-06 10:37:00,77.2,69.1,30.00,SSE,150,0.0,0.0,76,0.00,,---,0.00,VWS V14.00,2013-07-06 14:37:00,
2013-07-06 10:38:00,77.2,69.4,30.00,SSE,150,0.0,0.0,77,0.00,,---,0.00,VWS V14.00,2013-07-06 14:38:00,
2013-07-06 10:39:00,77.0,68.5,30.00,SSE,151,0.0,0.0,75,0.00,,---,0.00,VWS V14.00,2013-07-06 14:39:00,
2013-07-06 10:41:00,77.0,68.1,30.00,SSE,151,0.0,0.0,74,0.00,,---,0.00,VWS V14.00,2013-07-06 14:41:00,
2013-07-06 10:42:00,77.0,68.5,30.00,SSE,151,0.0,0.0,75,0.00,,---,0.00,VWS V14.00,2013-07-06 14:42:00,
2013-07-06 10:43:00,77.0,67.7,30.00,South,186,0.0,2.0,73,0.00,,---,0.00,VWS V14.00,2013-07-06 14:43:00,
2013-07-06 10:44:00,77.0,67.7,30.00,South,186,0.0,2.0,73,0.00,,---,0.00,VWS V14.00,2013-07-06 14:44:00,
2013-07-06 10:46:00,77.0,67.3,29.99,South,189,0.0,2.0,72,0.00,,---,0.00,VWS V14.00,2013-07-06 14:46:00,
2013-07-06 10:47:00,77.0,67.3,29.99,SSE,160,0.0,2.0,72,0.00,,---,0.00,VWS V14.00,2013-07-06 14:47:00,
2013-07-06 10:48:00,77.2,67.5,29.99,SSE,160,0.0,2.0,72,0.00,,---,0.00,VWS V14.00,2013-07-06 14:48:00,
2013-07-06 10:49:00,77.4,67.7,29.99,SSE,160,0.0,2.0,72,0.00,,---,0.00,VWS V14.00,2013-07-06 14:49:00,
2013-07-06 10:51:00,77.9,68.9,29.99,SSE,151,0.0,2.0,74,0.00,,---,0.00,VWS V14.00,2013-07-06 14:51:00,
2013-07-06 10:52:00,78.1,69.1,29.99,SSE,151,0.0,2.0,74,0.00,,---,0.00,VWS V14.00,2013-07-06 14:52:00,
2013-07-06 10:53:00,77.9,68.6,29.99,ESE,103,0.0,2.0,73,0.00,,---,0.00,VWS V14.00,2013-07-06 14:53:00,
2013-07-06 10:54:00,77.9,68.6,29.99,SE,134,0.0,2.0,73,0.00,,---,0.00,VWS V14.00,2013-07-06 14:54:00,
2013-07-06 10:56:00,77.9,68.2,29.99,SE,133,0.0,2.0,72,0.00,,---,0.00,VWS V14.00,2013-07-06 14:56:00,
2013-07-06 10:57:00,77.9,67.8,29.99,SE,133,0.0,2.0,71,0.00,,---,0.00,VWS V14.00,2013-07-06 14:57:00,
2013-07-06 10:58:00,77.9,67.8,29.99,SE,136,0.0,2.0,71,0.00,,---,0.00,VWS V14.00,2013-07-06 14:58:00,
2013-07-06 10:59:00,77.9,67.8,29.99,SE,136,0.0,2.0,71,0.00,,---,0.00,VWS V14.00,2013-07-06 14:59:00,
2013-07-06 11:01:00,78.1,68.3,29.99,SE,136,0.0,2.0,72,0.00,,---,0.00,VWS V14.00,2013-07-06 15:01:00,
2013-07-06 11:02:00,78.1,68.3,29.99,SE,136,0.0,0.0,72,0.00,,---,0.00,VWS V14.00,2013-07-06 15:02:00,
2013-07-06 11:03:00,77.9,68.2,29.99,SE,138,0.0,0.0,72,0.00,,---,0.00,VWS V14.00,2013-07-06 15:03:00,
2013-07-06 11:04:00,77.7,67.6,29.99,SE,138,0.0,1.0,71,0.00,,---,0.00,VWS V14.00,2013-07-06 15:04:00,
2013-07-06 11:06:00,77.6,67.9,29.99,SE,138,0.0,1.0,72,0.00,,---,0.00,VWS V14.00,2013-07-06 15:06:00,
2013-07-06 11:07:00,77.4,68.1,29.99,South,179,1.0,1.0,73,0.00,,---,0.00,VWS V14.00,2013-07-06 15:07:00,
2013-07-06 11:08:00,77.4,68.5,29.99,South,179,0.0,1.0,74,0.00,,---,0.00,VWS V14.00,2013-07-06 15:08:00,
2013-07-06 11:09:00,77.4,68.5,29.99,South,179,0.0,1.0,74,0.00,,---,0.00,VWS V14.00,2013-07-06 15:09:00,
2013-07-06 11:11:00,77.4,68.9,29.99,South,179,0.0,1.0,75,0.00,,---,0.00,VWS V14.00,2013-07-06 15:11:00,
2013-07-06 11:12:00,77.6,69.1,29.99,South,179,0.0,1.0,75,0.00,,---,0.00,VWS V14.00,2013-07-06 15:12:00,
2013-07-06 11:13:00,77.6,68.7,29.99,SSE,164,0.0,1.0,74,0.00,,---,0.00,VWS V14.00,2013-07-06 15:13:00,
2013-07-06 11:14:00,77.6,68.7,29.99,SSE,164,0.0,1.0,74,0.00,,---,0.00,VWS V14.00,2013-07-06 15:14:00,
2013-07-06 11:16:00,78.1,69.9,29.99,ESE,117,7.0,7.0,76,0.00,,---,0.00,VWS V14.00,2013-07-06 15:16:00,
2013-07-06 11:18:00,78.5,69.9,29.99,SE,140,2.0,7.0,75,0.00,,---,0.00,VWS V14.00,2013-07-06 15:18:00,
2013-07-06 11:19:00,78.5,69.1,29.99,SE,134,0.0,7.0,73,0.00,,---,0.00,VWS V14.00,2013-07-06 15:19:00,
2013-07-06 11:21:00,79.0,69.2,29.99,ESE,120,6.0,7.0,72,0.00,,---,0.00,VWS V14.00,2013-07-06 15:21:00,
2013-07-06 11:23:00,79.2,69.4,29.99,ESE,113,0.0,7.0,72,0.00,,---,0.00,VWS V14.00,2013-07-06 15:23:00,
2013-07-06 11:24:00,79.6,69.8,29.99,ESE,116,0.0,7.0,72,0.00,,---,0.00,VWS V14.00,2013-07-06 15:24:00,
2013-07-06 11:27:00,79.6,69.0,29.99,SE,141,0.0,9.0,70,0.00,,---,0.00,VWS V14.00,2013-07-06 15:27:00,
2013-07-06 11:28:00,79.6,69.4,29.99,SE,141,0.0,9.0,71,0.00,,---,0.00,VWS V14.00,2013-07-06 15:28:00,
2013-07-06 11:29:00,79.6,69.8,29.99,SE,126,6.0,9.0,72,0.00,,---,0.00,VWS V14.00,2013-07-06 15:29:00,
2013-07-06 11:30:00,79.4,68.3,29.99,SSE,147,6.0,9.0,69,0.00,,---,0.00,VWS V14.00,2013-07-06 15:30:00,
2013-07-06 11:32:00,79.4,68.3,29.99,SSE,148,0.0,9.0,69,0.00,,---,0.00,VWS V14.00,2013-07-06 15:32:00,
2013-07-06 11:33:00,79.4,68.8,29.99,SSE,148,0.0,9.0,70,0.00,,---,0.00,VWS V14.00,2013-07-06 15:33:00,
2013-07-06 11:34:00,79.4,68.3,29.99,SE,138,0.0,9.0,69,0.00,,---,0.00,VWS V14.00,2013-07-06 15:34:00,
2013-07-06 11:35:00,79.6,69.4,29.99,East,96,0.0,9.0,71,0.00,,---,0.00,VWS V14.00,2013-07-06 15:35:00,
2013-07-06 11:37:00,79.9,69.7,29.99,SE,124,0.0,9.0,71,0.00,,---,0.00,VWS V14.00,2013-07-06 15:37:00,
2013-07-06 11:38:00,80.1,69.4,29.99,SE,127,1.0,9.0,70,0.00,,---,0.00,VWS V14.00,2013-07-06 15:38:00,
2013-07-06 11:39:00,80.1,69.4,29.99,SE,137,1.0,9.0,70,0.00,,---,0.00,VWS V14.00,2013-07-06 15:39:00,
2013-07-06 11:40:00,79.9,68.0,29.99,SE,126,8.0,9.0,67,0.00,,---,0.00,VWS V14.00,2013-07-06 15:40:00,
2013-07-06 11:42:00,79.4,67.9,29.99,ESE,123,0.0,9.0,68,0.00,,---,0.00,VWS V14.00,2013-07-06 15:42:00,
2013-07-06 11:43:00,79.2,67.7,29.99,SSE,151,0.0,9.0,68,0.00,,---,0.00,VWS V14.00,2013-07-06 15:43:00,
2013-07-06 11:44:00,79.2,67.7,29.99,SSE,151,0.0,9.0,68,0.00,,---,0.00,VWS V14.00,2013-07-06 15:44:00,
2013-07-06 11:45:00,79.2,68.2,29.99,SE,140,0.0,9.0,69,0.00,,---,0.00,VWS V14.00,2013-07-06 15:45:00,
2013-07-06 11:47:00,79.2,68.2,29.99,SE,141,0.0,9.0,69,0.00,,---,0.00,VWS V14.00,2013-07-06 15:47:00,
2013-07-06 11:48:00,79.0,68.0,29.99,SE,137,0.0,9.0,69,0.00,,---,0.00,VWS V14.00,2013-07-06 15:48:00,
2013-07-06 11:49:00,79.0,68.0,29.99,SE,137,0.0,9.0,69,0.00,,---,0.00,VWS V14.00,2013-07-06 15:49:00,
2013-07-06 11:51:00,79.2,68.6,29.99,SE,138,0.0,9.0,70,0.00,,---,0.00,VWS V14.00,2013-07-06 15:51:00,
2013-07-06 11:52:00,79.0,68.0,29.99,SE,138,0.0,9.0,69,0.00,,---,0.00,VWS V14.00,2013-07-06 15:52:00,
2013-07-06 11:53:00,78.8,67.8,29.99,SE,143,0.0,9.0,69,0.00,,---,0.00,VWS V14.00,2013-07-06 15:53:00,
2013-07-06 11:54:00,78.8,67.8,29.99,SSE,150,0.0,9.0,69,0.00,,---,0.00,VWS V14.00,2013-07-06 15:54:00,
2013-07-06 11:56:00,79.2,69.4,29.99,SSE,150,0.0,9.0,72,0.00,,---,0.00,VWS V14.00,2013-07-06 15:56:00,
2013-07-06 11:58:00,79.2,69.8,29.99,SE,144,0.0,9.0,73,0.00,,---,0.00,VWS V14.00,2013-07-06 15:58:00,
2013-07-06 11:59:00,79.6,68.5,29.99,ESE,120,1.0,9.0,69,0.00,,---,0.00,VWS V14.00,2013-07-06 15:59:00,
2013-07-06 12:01:00,79.9,68.8,29.98,SSE,148,1.0,9.0,69,0.00,,---,0.00,VWS V14.00,2013-07-06 16:01:00,
2013-07-06 12:03:00,79.8,67.9,29.98,SSE,162,0.0,4.0,67,0.00,,---,0.00,VWS V14.00,2013-07-06 16:03:00,
2013-07-06 12:04:00,79.8,68.7,29.98,SSW,199,6.0,6.0,69,0.00,,---,0.00,VWS V14.00,2013-07-06 16:04:00,
2013-07-06 12:05:00,79.6,68.5,29.98,SSW,200,2.0,7.0,69,0.00,,---,0.00,VWS V14.00,2013-07-06 16:05:00,
2013-07-06 12:06:00,79.2,67.7,29.98,South,188,0.0,7.0,68,0.00,,---,0.00,VWS V14.00,2013-07-06 16:06:00,
2013-07-06 12:08:00,79.0,68.0,29.98,SSE,151,1.0,7.0,69,0.00,,---,0.00,VWS V14.00,2013-07-06 16:08:00,
2013-07-06 12:09:00,79.4,68.3,29.98,SE,141,1.0,7.0,69,0.00,,---,0.00,VWS V14.00,2013-07-06 16:09:00,
2013-07-06 12:10:00,79.4,68.3,29.98,SE,133,0.0,7.0,69,0.00,,---,0.00,VWS V14.00,2013-07-06 16:10:00,
2013-07-06 12:11:00,79.6,68.5,29.98,SSE,147,1.0,7.0,69,0.00,,---,0.00,VWS V14.00,2013-07-06 16:11:00,
2013-07-06 12:13:00,79.8,70.0,29.98,SSE,168,0.0,7.0,72,0.00,,---,0.00,VWS V14.00,2013-07-06 16:13:00,
2013-07-06 12:14:00,79.6,68.1,29.98,SSE,168,0.0,7.0,68,0.00,,---,0.00,VWS V14.00,2013-07-06 16:14:00,
2013-07-06 12:15:00,79.4,67.9,29.98,SSE,150,0.0,7.0,68,0.00,,---,0.00,VWS V14.00,2013-07-06 16:15:00,
2013-07-06 12:18:00,79.8,68.7,29.98,SE,144,0.0,9.0,69,0.00,,---,0.00,VWS V14.00,2013-07-06 16:18:00,
2013-07-06 12:20:00,79.8,67.0,29.98,East,96,0.0,9.0,65,0.00,,---,0.00,VWS V14.00,2013-07-06 16:20:00,
2013-07-06 12:23:00,79.9,68.4,29.98,SE,144,0.0,9.0,68,0.00,,---,0.00,VWS V14.00,2013-07-06 16:23:00,
2013-07-06 12:24:00,79.8,68.7,29.98,SSE,151,0.0,9.0,69,0.00,,---,0.00,VWS V14.00,2013-07-06 16:24:00,
2013-07-06 12:25:00,79.9,70.1,29.98,SE,141,6.0,9.0,72,0.00,,---,0.00,VWS V14.00,2013-07-06 16:25:00,
2013-07-06 12:26:00,79.8,69.6,29.98,SE,137,2.0,9.0,71,0.00,,---,0.00,VWS V14.00,2013-07-06 16:26:00,
2013-07-06 12:29:00,79.6,68.5,29.98,South,188,6.0,10.0,69,0.00,,---,0.00,VWS V14.00,2013-07-06 16:29:00,
2013-07-06 12:31:00,79.2,68.6,29.98,SW,233,2.0,10.0,70,0.00,,---,0.00,VWS V14.00,2013-07-06 16:31:00,
2013-07-06 12:34:00,79.2,68.2,29.98,SSW,202,4.0,10.0,69,0.00,,---,0.00,VWS V14.00,2013-07-06 16:34:00,
2013-07-06 12:36:00,79.2,68.2,29.98,SE,145,0.0,10.0,69,0.00,,---,0.00,VWS V14.00,2013-07-06 16:36:00,
2013-07-06 12:37:00,79.4,68.8,29.98,SE,137,0.0,10.0,70,0.00,,---,0.00,VWS V14.00,2013-07-06 16:37:00,
2013-07-06 12:39:00,79.6,68.5,29.98,South,181,6.0,10.0,69,0.00,,---,0.00,VWS V14.00,2013-07-06 16:39:00,
2013-07-06 12:41:00,79.6,68.5,29.98,SSE,161,0.0,10.0,69,0.00,,---,0.00,VWS V14.00,2013-07-06 16:41:00,
2013-07-06 12:42:00,79.9,68.8,29.98,SSE,162,1.0,10.0,69,0.00,,---,0.00,VWS V14.00,2013-07-06 16:42:00,
2013-07-06 12:45:00,79.9,68.0,29.98,South,185,2.0,10.0,67,0.00,,---,0.00,VWS V14.00,2013-07-06 16:45:00,
2013-07-06 12:47:00,79.9,68.0,29.98,South,178,0.0,10.0,67,0.00,,---,0.00,VWS V14.00,2013-07-06 16:47:00,
2013-07-06 12:51:00,80.1,68.2,29.98,SSE,160,0.0,10.0,67,0.00,,---,0.00,VWS V14.00,2013-07-06 16:51:00,
2013-07-06 12:52:00,80.1,68.2,29.98,SSE,165,0.0,10.0,67,0.00,,---,0.00,VWS V14.00,2013-07-06 16:52:00,
2013-07-06 12:57:00,79.9,68.8,29.98,SSE,147,0.0,10.0,69,0.00,,---,0.00,VWS V14.00,2013-07-06 16:57:00,
2013-07-06 12:58:00,79.9,69.2,29.98,SW,219,4.0,10.0,70,0.00,,---,0.00,VWS V14.00,2013-07-06 16:58:00,
2013-07-06 13:02:00,80.1,68.2,29.97,South,179,0.0,2.0,67,0.00,,---,0.00,VWS V14.00,2013-07-06 17:02:00,
2013-07-06 13:03:00,79.9,68.0,29.97,SSW,199,0.0,6.0,67,0.00,,---,0.00,VWS V14.00,2013-07-06 17:03:00,
2013-07-06 13:07:00,80.1,69.0,29.97,SSW,205,0.0,6.0,69,0.00,,---,0.00,VWS V14.00,2013-07-06 17:07:00,
2013-07-06 13:08:00,80.1,69.0,29.97,South,189,0.0,6.0,69,0.00,,---,0.00,VWS V14.00,2013-07-06 17:08:00,
2013-07-06 13:13:00,80.5,68.5,29.97,SSW,198,4.0,8.0,67,0.00,,---,0.00,VWS V14.00,2013-07-06 17:13:00,
2013-07-06 13:18:00,80.3,67.5,29.97,SSE,154,1.0,8.0,65,0.00,,---,0.00,VWS V14.00,2013-07-06 17:18:00,
2013-07-06 13:19:00,80.3,68.3,29.97,SSW,198,1.0,8.0,67,0.00,,---,0.00,VWS V14.00,2013-07-06 17:19:00,
2013-07-06 13:24:00,80.1,67.7,29.97,SSW,205,2.0,8.0,66,0.00,,---,0.00,VWS V14.00,2013-07-06 17:24:00,
2013-07-06 13:29:00,80.1,68.6,29.97,SE,145,0.0,8.0,68,0.00,,---,0.00,VWS V14.00,2013-07-06 17:29:00,
2013-07-06 13:30:00,80.3,69.2,29.97,SSE,155,2.0,8.0,69,0.00,,---,0.00,VWS V14.00,2013-07-06 17:30:00,
2013-07-06 13:35:00,80.3,68.3,29.96,SE,136,4.0,9.0,67,0.00,,---,0.00,VWS V14.00,2013-07-06 17:35:00,
2013-07-06 13:40:00,80.3,69.2,29.96,SE,138,0.0,9.0,69,0.00,,---,0.00,VWS V14.00,2013-07-06 17:40:00,
2013-07-06 13:41:00,80.3,69.2,29.96,SE,126,0.0,9.0,69,0.00,,---,0.00,VWS V14.00,2013-07-06 17:41:00,
2013-07-06 13:45:00,80.3,69.2,29.96,SSE,148,0.0,9.0,69,0.00,,---,0.00,VWS V14.00,2013-07-06 17:45:00,
2013-07-06 13:46:00,80.3,69.6,29.96,SE,145,2.0,9.0,70,0.00,,---,0.00,VWS V14.00,2013-07-06 17:46:00,
2013-07-06 13:50:00,79.8,69.2,29.96,SE,136,0.0,9.0,70,0.00,,---,0.00,VWS V14.00,2013-07-06 17:50:00,
2013-07-06 13:52:00,79.8,68.7,29.96,SE,138,2.0,9.0,69,0.00,,---,0.00,VWS V14.00,2013-07-06 17:52:00,
2013-07-06 13:56:00,79.8,69.2,29.96,SE,145,0.0,9.0,70,0.00,,---,0.00,VWS V14.00,2013-07-06 17:56:00,
2013-07-06 13:57:00,79.6,68.5,29.96,East,96,0.0,9.0,69,0.00,,---,0.00,VWS V14.00,2013-07-06 17:57:00,
2013-07-06 13:58:00,79.8,69.6,29.96,SE,130,7.0,9.0,71,0.00,,---,0.00,VWS V14.00,2013-07-06 17:58:00,
2013-07-06 14:01:00,79.8,69.2,29.96,SSE,157,0.0,9.0,70,0.00,,---,0.00,VWS V14.00,2013-07-06 18:01:00,
2013-07-06 14:03:00,79.6,69.0,29.96,South,186,0.0,0.0,70,0.00,,---,0.00,VWS V14.00,2013-07-06 18:03:00,
2013-07-06 14:06:00,79.2,68.2,29.96,SE,141,0.0,8.0,69,0.00,,---,0.00,VWS V14.00,2013-07-06 18:06:00,
2013-07-06 14:10:00,79.6,68.1,29.96,SE,138,0.0,8.0,68,0.00,,---,0.00,VWS V14.00,2013-07-06 18:10:00,
2013-07-06 14:14:00,79.6,67.2,29.96,ESE,116,0.0,8.0,66,0.00,,---,0.00,VWS V14.00,2013-07-06 18:14:00,
2013-07-06 14:16:00,79.8,67.4,29.95,SSE,155,1.0,8.0,66,0.00,,---,0.00,VWS V14.00,2013-07-06 18:16:00,
2013-07-06 14:21:00,80.5,69.4,29.95,SE,133,7.0,8.0,69,0.00,,---,0.00,VWS V14.00,2013-07-06 18:21:00,
2013-07-06 14:22:00,80.7,69.6,29.95,SE,134,1.0,8.0,69,0.00,,---,0.00,VWS V14.00,2013-07-06 18:22:00,
2013-07-06 14:26:00,81.6,70.0,29.95,South,188,0.0,8.0,68,0.00,,---,0.00,VWS V14.00,2013-07-06 18:26:00,
2013-07-06 14:27:00,81.6,69.2,29.95,South,184,4.0,8.0,66,0.00,,---,0.00,VWS V14.00,2013-07-06 18:27:00,
2013-07-06 14:28:00,81.4,68.5,29.95,South,191,0.0,8.0,65,0.00,,---,0.00,VWS V14.00,2013-07-06 18:28:00,
2013-07-06 14:32:00,80.9,68.9,29.95,SSW,196,0.0,8.0,67,0.00,,---,0.00,VWS V14.00,2013-07-06 18:32:00,
2013-07-06 14:33:00,80.7,69.2,29.95,SSW,209,0.0,8.0,68,0.00,,---,0.00,VWS V14.00,2013-07-06 18:33:00,
2013-07-06 14:35:00,80.7,68.3,29.95,SW,217,0.0,8.0,66,0.00,,---,0.00,VWS V14.00,2013-07-06 18:35:00,
2013-07-06 14:37:00,80.9,68.5,29.95,ESE,120,1.0,8.0,66,0.00,,---,0.00,VWS V14.00,2013-07-06 18:37:00,
2013-07-06 14:38:00,81.1,68.2,29.95,ESE,120,0.0,8.0,65,0.00,,---,0.00,VWS V14.00,2013-07-06 18:38:00,
2013-07-06 14:40:00,81.1,69.1,29.95,SSE,148,0.0,8.0,67,0.00,,---,0.00,VWS V14.00,2013-07-06 18:40:00,
2013-07-06 14:43:00,80.7,68.7,29.95,SSW,195,0.0,8.0,67,0.00,,---,0.00,VWS V14.00,2013-07-06 18:43:00,
2013-07-06 14:44:00,80.7,69.6,29.95,SSW,195,2.0,8.0,69,0.00,,---,0.00,VWS V14.00,2013-07-06 18:44:00,
2013-07-06 14:45:00,80.5,69.4,29.95,SSW,196,6.0,8.0,69,0.00,,---,0.00,VWS V14.00,2013-07-06 18:45:00,
2013-07-06 14:48:00,80.5,69.4,29.94,SE,144,0.0,8.0,69,0.00,,---,0.00,VWS V14.00,2013-07-06 18:48:00,
2013-07-06 14:49:00,80.5,69.0,29.94,SSW,209,0.0,8.0,68,0.00,,---,0.00,VWS V14.00,2013-07-06 18:49:00,
2013-07-06 14:50:00,80.7,69.6,29.94,SSW,209,0.0,8.0,69,0.00,,---,0.00,VWS V14.00,2013-07-06 18:50:00,
2013-07-06 14:53:00,80.9,68.5,29.94,SSW,200,4.0,8.0,66,0.00,,---,0.00,VWS V14.00,2013-07-06 18:53:00,
2013-07-06 14:54:00,80.7,68.3,29.94,SSW,200,0.0,8.0,66,0.00,,---,0.00,VWS V14.00,2013-07-06 18:54:00,
2013-07-06 14:55:00,80.5,69.0,29.94,South,186,1.0,8.0,68,0.00,,---,0.00,VWS V14.00,2013-07-06 18:55:00,
2013-07-06 14:59:00,80.1,68.6,29.94,SSE,167,0.0,8.0,68,0.00,,---,0.00,VWS V14.00,2013-07-06 18:59:00,
2013-07-06 15:01:00,80.1,68.6,29.93,South,184,0.0,0.0,68,0.00,,---,0.00,VWS V14.00,2013-07-06 19:01:00,
2013-07-06 15:04:00,79.9,68.0,29.93,SSE,161,2.0,8.0,67,0.00,,---,0.00,VWS V14.00,2013-07-06 19:04:00,
2013-07-06 15:05:00,79.9,68.0,29.93,SSE,151,0.0,8.0,67,0.00,,---,0.00,VWS V14.00,2013-07-06 19:05:00,
2013-07-06 15:07:00,80.3,68.8,29.93,SE,127,0.0,8.0,68,0.00,,---,0.00,VWS V14.00,2013-07-06 19:07:00,
2013-07-06 15:09:00,80.9,68.9,29.93,SSE,150,0.0,8.0,67,0.00,,---,0.00,VWS V14.00,2013-07-06 19:09:00,
2013-07-06 15:12:00,80.9,69.4,29.93,South,169,0.0,8.0,68,0.00,,---,0.00,VWS V14.00,2013-07-06 19:12:00,
2013-07-06 15:14:00,80.9,68.5,29.93,SSE,158,0.0,8.0,66,0.00,,---,0.00,VWS V14.00,2013-07-06 19:14:00,
2013-07-06 15:15:00,80.7,68.7,29.93,SE,138,0.0,8.0,67,0.00,,---,0.00,VWS V14.00,2013-07-06 19:15:00,
2013-07-06 15:17:00,80.5,69.0,29.93,SE,140,0.0,8.0,68,0.00,,---,0.00,VWS V14.00,2013-07-06 19:17:00,
2013-07-06 15:20:00,80.5,69.4,29.93,SE,124,0.0,8.0,69,0.00,,---,0.00,VWS V14.00,2013-07-06 19:20:00,
2013-07-06 15:22:00,80.5,69.0,29.93,SE,133,8.0,8.0,68,0.00,,---,0.00,VWS V14.00,2013-07-06 19:22:00,
2013-07-06 15:26:00,80.3,68.3,29.93,SE,126,0.0,8.0,67,0.00,,---,0.00,VWS V14.00,2013-07-06 19:26:00,
2013-07-06 15:27:00,80.5,69.4,29.93,SSE,151,0.0,8.0,69,0.00,,---,0.00,VWS V14.00,2013-07-06 19:27:00,
2013-07-06 15:28:00,80.3,68.3,29.93,ESE,103,0.0,8.0,67,0.00,,---,0.00,VWS V14.00,2013-07-06 19:28:00,
2013-07-06 15:31:00,80.5,68.1,29.93,ESE,109,0.0,8.0,66,0.00,,---,0.00,VWS V14.00,2013-07-06 19:31:00,
2013-07-06 15:32:00,80.7,69.6,29.93,ESE,120,0.0,8.0,69,0.00,,---,0.00,VWS V14.00,2013-07-06 19:32:00,
2013-07-06 15:34:00,80.7,69.6,29.93,ESE,113,0.0,8.0,69,0.00,,---,0.00,VWS V14.00,2013-07-06 19:34:00,
2013-07-06 15:36:00,80.9,69.4,29.93,ESE,102,0.0,8.0,68,0.00,,---,0.00,VWS V14.00,2013-07-06 19:36:00,
2013-07-06 15:38:00,81.1,69.1,29.93,SE,126,0.0,8.0,67,0.00,,---,0.00,VWS V14.00,2013-07-06 19:38:00,
2013-07-06 15:39:00,81.1,68.7,29.93,ESE,119,0.0,8.0,66,0.00,,---,0.00,VWS V14.00,2013-07-06 19:39:00,
2013-07-06 15:41:00,80.9,68.5,29.93,SE,143,0.0,8.0,66,0.00,,---,0.00,VWS V14.00,2013-07-06 19:41:00,
2013-07-06 15:43:00,80.9,69.4,29.93,ESE,112,0.0,8.0,68,0.00,,---,0.00,VWS V14.00,2013-07-06 19:43:00,
2013-07-06 15:45:00,80.9,68.9,29.93,ESE,113,7.0,8.0,67,0.00,,---,0.00,VWS V14.00,2013-07-06 19:45:00,
2013-07-06 15:47:00,81.1,70.0,29.92,SSE,147,0.0,9.0,69,0.00,,---,0.00,VWS V14.00,2013-07-06 19:47:00,
2013-07-06 15:49:00,80.9,69.8,29.92,SE,134,0.0,9.0,69,0.00,,---,0.00,VWS V14.00,2013-07-06 19:49:00,
2013-07-06 15:50:00,80.7,69.6,29.92,ESE,120,0.0,9.0,69,0.00,,---,0.00,VWS V14.00,2013-07-06 19:50:00,
2013-07-06 15:53:00,80.7,70.0,29.92,ESE,112,0.0,9.0,70,0.00,,---,0.00,VWS V14.00,2013-07-06 19:53:00,
2013-07-06 15:54:00,80.7,70.0,29.92,SE,134,0.0,9.0,70,0.00,,---,0.00,VWS V14.00,2013-07-06 19:54:00,
2013-07-06 15:55:00,80.7,70.4,29.92,SE,133,0.0,9.0,71,0.00,,---,0.00,VWS V14.00,2013-07-06 19:55:00,
2013-07-06 15:58:00,80.7,70.4,29.92,SE,130,0.0,9.0,71,0.00,,---,0.00,VWS V14.00,2013-07-06 19:58:00,
2013-07-06 15:59:00,80.7,70.0,29.92,ESE,123,0.0,9.0,70,0.00,,---,0.00,VWS V14.00,2013-07-06 19:59:00,
2013-07-06 16:01:00,80.7,70.0,29.93,SE,140,2.0,9.0,70,0.00,,---,0.00,VWS V14.00,2013-07-06 20:01:00,
2013-07-06 16:03:00,80.3,69.6,29.93,SE,131,0.0,6.0,70,0.00,,---,0.00,VWS V14.00,2013-07-06 20:03:00,
2013-07-06 16:05:00,80.1,69.4,29.93,SE,140,0.0,6.0,70,0.00,,---,0.00,VWS V14.00,2013-07-06 20:05:00,
2013-07-06 16:06:00,80.1,69.4,29.93,SSE,148,0.0,6.0,70,0.00,,---,0.00,VWS V14.00,2013-07-06 20:06:00,
2013-07-06 16:09:00,80.1,69.4,29.93,SE,127,0.0,6.0,70,0.00,,---,0.00,VWS V14.00,2013-07-06 20:09:00,
2013-07-06 16:11:00,80.1,69.4,29.93,SE,127,0.0,6.0,70,0.00,,---,0.00,VWS V14.00,2013-07-06 20:11:00,
2013-07-06 16:12:00,79.9,69.2,29.93,SE,127,0.0,6.0,70,0.00,,---,0.00,VWS V14.00,2013-07-06 20:12:00,
2013-07-06 16:15:00,79.9,69.7,29.93,SE,127,0.0,6.0,71,0.00,,---,0.00,VWS V14.00,2013-07-06 20:15:00,
2013-07-06 16:16:00,79.9,69.2,29.92,SE,131,0.0,6.0,70,0.00,,---,0.00,VWS V14.00,2013-07-06 20:16:00,
2013-07-06 16:17:00,79.9,69.2,29.92,SE,140,0.0,6.0,70,0.00,,---,0.00,VWS V14.00,2013-07-06 20:17:00,
2013-07-06 16:21:00,80.1,70.3,29.92,SE,140,0.0,6.0,72,0.00,,---,0.00,VWS V14.00,2013-07-06 20:21:00,
2013-07-06 16:23:00,80.1,69.4,29.92,SE,138,0.0,6.0,70,0.00,,---,0.00,VWS V14.00,2013-07-06 20:23:00,
2013-07-06 16:26:00,79.9,69.2,29.92,SE,131,0.0,6.0,70,0.00,,---,0.00,VWS V14.00,2013-07-06 20:26:00,
2013-07-06 16:29:00,79.9,70.1,29.92,SE,131,0.0,6.0,72,0.00,,---,0.00,VWS V14.00,2013-07-06 20:29:00,
2013-07-06 16:32:00,79.8,70.0,29.92,SE,127,0.0,6.0,72,0.00,,---,0.00,VWS V14.00,2013-07-06 20:32:00,
2013-07-06 16:33:00,79.8,70.0,29.92,SE,141,0.0,6.0,72,0.00,,---,0.00,VWS V14.00,2013-07-06 20:33:00,
2013-07-06 16:34:00,79.6,69.4,29.92,SE,140,6.0,10.0,71,0.00,,---,0.00,VWS V14.00,2013-07-06 20:34:00,
2013-07-06 16:37:00,78.8,68.6,29.92,ESE,120,6.0,17.0,71,0.00,,---,0.00,VWS V14.00,2013-07-06 20:37:00,
2013-07-06 16:38:00,78.5,68.7,29.92,ESE,117,9.0,17.0,72,0.00,,---,0.00,VWS V14.00,2013-07-06 20:38:00,
2013-07-06 16:40:00,77.9,68.9,29.92,SE,131,0.0,17.0,74,0.00,,---,0.00,VWS V14.00,2013-07-06 20:40:00,
2013-07-06 16:42:00,76.8,68.7,29.92,SE,143,0.0,17.0,76,0.00,,---,0.00,VWS V14.00,2013-07-06 20:42:00,
2013-07-06 16:43:00,76.5,68.4,29.92,SE,134,6.0,17.0,76,0.01,,---,0.01,VWS V14.00,2013-07-06 20:43:00,
2013-07-06 16:45:00,75.8,68.5,29.92,SE,138,6.0,17.0,78,0.06,,---,0.06,VWS V14.00,2013-07-06 20:45:00,
2013-07-06 16:49:00,74.4,68.6,29.93,ESE,113,0.0,17.0,82,0.11,,---,0.11,VWS V14.00,2013-07-06 20:49:00,
2013-07-06 16:50:00,74.0,68.5,29.93,South,179,0.0,17.0,83,0.13,,---,0.13,VWS V14.00,2013-07-06 20:50:00,
2013-07-06 16:54:00,73.5,69.1,29.93,SSW,212,1.0,17.0,86,0.15,,---,0.15,VWS V14.00,2013-07-06 20:54:00,
2013-07-06 16:55:00,73.5,69.1,29.93,SSW,202,0.0,17.0,86,0.15,,---,0.15,VWS V14.00,2013-07-06 20:55:00,
2013-07-06 16:56:00,73.5,69.4,29.93,SSW,202,0.0,17.0,87,0.16,,---,0.16,VWS V14.00,2013-07-06 20:56:00,
2013-07-06 16:59:00,73.3,69.5,29.93,SSW,199,0.0,17.0,88,0.20,,---,0.20,VWS V14.00,2013-07-06 20:59:00,
2013-07-06 17:00:00,73.3,69.9,29.93,SSW,199,1.0,17.0,89,0.20,,---,0.20,VWS V14.00,2013-07-06 21:00:00,
2013-07-06 17:01:00,73.2,69.8,29.94,SSW,199,0.0,17.0,89,0.20,,---,0.20,VWS V14.00,2013-07-06 21:01:00,
2013-07-06 17:05:00,73.2,70.1,29.94,SSW,199,0.0,0.0,90,0.21,,---,0.21,VWS V14.00,2013-07-06 21:05:00,
2013-07-06 17:06:00,73.2,70.1,29.94,SSW,199,0.0,0.0,90,0.21,,---,0.21,VWS V14.00,2013-07-06 21:06:00,
2013-07-06 17:10:00,73.2,70.1,29.94,SSW,199,0.0,0.0,90,0.21,,---,0.21,VWS V14.00,2013-07-06 21:10:00,
2013-07-06 17:11:00,73.2,70.4,29.94,SSW,199,0.0,0.0,91,0.21,,---,0.21,VWS V14.00,2013-07-06 21:11:00,
2013-07-06 17:16:00,73.3,70.5,29.94,South,186,0.0,1.0,91,0.22,,---,0.22,VWS V14.00,2013-07-06 21:16:00,
2013-07-06 17:18:00,73.2,70.4,29.94,SSW,200,6.0,7.0,91,0.23,,---,0.23,VWS V14.00,2013-07-06 21:18:00,
2013-07-06 17:21:00,72.8,70.0,29.94,SSW,200,0.0,8.0,91,0.23,,---,0.23,VWS V14.00,2013-07-06 21:21:00,
2013-07-06 17:22:00,72.8,70.0,29.94,SSW,200,0.0,8.0,91,0.23,,---,0.23,VWS V14.00,2013-07-06 21:22:00,
2013-07-06 17:23:00,72.8,69.7,29.94,SSW,200,0.0,8.0,90,0.23,,---,0.23,VWS V14.00,2013-07-06 21:23:00,
2013-07-06 17:26:00,73.0,70.2,29.94,SSW,200,0.0,8.0,91,0.24,,---,0.24,VWS V14.00,2013-07-06 21:26:00,
2013-07-06 17:27:00,73.0,70.2,29.94,SSW,200,0.0,8.0,91,0.24,,---,0.24,VWS V14.00,2013-07-06 21:27:00,
2013-07-06 17:28:00,72.8,70.0,29.94,SSW,200,0.0,8.0,91,0.24,,---,0.24,VWS V14.00,2013-07-06 21:28:00,
2013-07-06 17:32:00,73.0,70.2,29.93,SSW,200,0.0,8.0,91,0.24,,---,0.24,VWS V14.00,2013-07-06 21:32:00,
2013-07-06 17:34:00,73.0,70.2,29.93,SSW,200,0.0,8.0,91,0.24,,---,0.24,VWS V14.00,2013-07-06 21:34:00,
2013-07-06 17:37:00,73.2,70.1,29.93,SSW,200,0.0,8.0,90,0.24,,---,0.24,VWS V14.00,2013-07-06 21:37:00,
2013-07-06 17:38:00,73.2,70.1,29.93,SSW,200,0.0,8.0,90,0.24,,---,0.24,VWS V14.00,2013-07-06 21:38:00,
2013-07-06 17:39:00,73.2,70.1,29.93,SSW,200,0.0,8.0,90,0.24,,---,0.24,VWS V14.00,2013-07-06 21:39:00,
2013-07-06 17:43:00,73.5,70.4,29.93,SSW,200,0.0,8.0,90,0.24,,---,0.24,VWS V14.00,2013-07-06 21:43:00,
2013-07-06 17:45:00,73.7,70.6,29.93,SSW,200,0.0,8.0,90,0.24,,---,0.24,VWS V14.00,2013-07-06 21:45:00,
2013-07-06 17:46:00,73.5,70.4,29.92,SSW,200,0.0,8.0,90,0.24,,---,0.24,VWS V14.00,2013-07-06 21:46:00,
2013-07-06 17:49:00,73.3,69.9,29.92,SSW,200,0.0,8.0,89,0.24,,---,0.24,VWS V14.00,2013-07-06 21:49:00,
2013-07-06 17:50:00,73.5,70.4,29.92,SSW,198,0.0,8.0,90,0.24,,---,0.24,VWS V14.00,2013-07-06 21:50:00,
2013-07-06 17:51:00,73.5,70.4,29.92,SSW,195,0.0,8.0,90,0.24,,---,0.24,VWS V14.00,2013-07-06 21:51:00,
2013-07-06 17:54:00,73.3,69.9,29.92,South,188,0.0,8.0,89,0.24,,---,0.24,VWS V14.00,2013-07-06 21:54:00,
2013-07-06 17:56:00,73.3,69.9,29.92,South,188,0.0,8.0,89,0.24,,---,0.24,VWS V14.00,2013-07-06 21:56:00,
2013-07-06 17:59:00,73.5,70.1,29.92,South,184,0.0,8.0,89,0.25,,---,0.25,VWS V14.00,2013-07-06 21:59:00,
2013-07-06 18:01:00,73.7,70.3,29.91,South,189,0.0,0.0,89,0.05,,---,0.25,VWS V14.00,2013-07-06 22:01:00,
2013-07-06 18:04:00,73.7,70.3,29.91,South,189,0.0,0.0,89,0.05,,---,0.25,VWS V14.00,2013-07-06 22:04:00,
2013-07-06 18:06:00,73.5,70.1,29.91,South,189,0.0,0.0,89,0.05,,---,0.25,VWS V14.00,2013-07-06 22:06:00,
2013-07-06 18:07:00,73.5,70.1,29.91,South,189,0.0,0.0,89,0.05,,---,0.25,VWS V14.00,2013-07-06 22:07:00,
2013-07-06 18:09:00,73.3,69.5,29.91,South,189,0.0,0.0,88,0.05,,---,0.25,VWS V14.00,2013-07-06 22:09:00,
2013-07-06 18:11:00,73.7,70.3,29.91,South,189,0.0,0.0,89,0.05,,---,0.25,VWS V14.00,2013-07-06 22:11:00,
2013-07-06 18:12:00,73.7,69.9,29.91,South,189,0.0,0.0,88,0.05,,---,0.25,VWS V14.00,2013-07-06 22:12:00,
2013-07-06 18:14:00,73.7,70.3,29.91,SSW,199,0.0,1.0,89,0.05,,---,0.25,VWS V14.00,2013-07-06 22:14:00,
2013-07-06 18:17:00,73.7,69.9,29.92,SSW,199,0.0,1.0,88,0.05,,---,0.25,VWS V14.00,2013-07-06 22:17:00,
2013-07-06 18:18:00,73.7,70.3,29.92,SSW,199,0.0,1.0,89,0.05,,---,0.25,VWS V14.00,2013-07-06 22:18:00,
2013-07-06 18:19:00,73.9,70.5,29.92,SSW,199,0.0,1.0,89,0.05,,---,0.25,VWS V14.00,2013-07-06 22:19:00,
2013-07-06 18:23:00,73.7,70.3,29.92,SSW,199,0.0,1.0,89,0.05,,---,0.25,VWS V14.00,2013-07-06 22:23:00,
2013-07-06 18:24:00,73.9,70.5,29.92,SSW,199,0.0,1.0,89,0.05,,---,0.25,VWS V14.00,2013-07-06 22:24:00,
2013-07-06 18:25:00,73.9,70.5,29.92,SSW,196,0.0,1.0,89,0.05,,---,0.25,VWS V14.00,2013-07-06 22:25:00,
2013-07-06 18:29:00,73.9,70.5,29.92,South,169,0.0,1.0,89,0.05,,---,0.25,VWS V14.00,2013-07-06 22:29:00,
2013-07-06 18:31:00,73.9,70.5,29.92,South,169,0.0,1.0,89,0.05,,---,0.25,VWS V14.00,2013-07-06 22:31:00,
2013-07-06 18:34:00,74.0,70.6,29.92,South,169,0.0,1.0,89,0.05,,---,0.25,VWS V14.00,2013-07-06 22:34:00,
2013-07-06 18:35:00,74.0,70.6,29.92,South,169,0.0,1.0,89,0.05,,---,0.25,VWS V14.00,2013-07-06 22:35:00,
2013-07-06 18:36:00,74.2,70.8,29.92,South,169,0.0,1.0,89,0.05,,---,0.25,VWS V14.00,2013-07-06 22:36:00,
2013-07-06 18:40:00,74.0,70.6,29.92,SSE,160,0.0,1.0,89,0.05,,---,0.25,VWS V14.00,2013-07-06 22:40:00,
2013-07-06 18:41:00,73.9,70.5,29.92,SSE,160,0.0,1.0,89,0.05,,---,0.25,VWS V14.00,2013-07-06 22:41:00,
2013-07-06 18:45:00,73.9,70.5,29.91,SSE,160,0.0,1.0,89,0.05,,---,0.25,VWS V14.00,2013-07-06 22:45:00,
2013-07-06 18:46:00,73.9,70.5,29.91,SSE,160,0.0,1.0,89,0.05,,---,0.25,VWS V14.00,2013-07-06 22:46:00,
2013-07-06 18:47:00,73.9,70.5,29.91,SSE,160,0.0,1.0,89,0.05,,---,0.25,VWS V14.00,2013-07-06 22:47:00,
2013-07-06 18:51:00,73.5,70.1,29.91,SSE,148,0.0,1.0,89,0.05,,---,0.25,VWS V14.00,2013-07-06 22:51:00,
2013-07-06 18:53:00,73.5,70.1,29.91,SE,143,0.0,1.0,89,0.05,,---,0.25,VWS V14.00,2013-07-06 22:53:00,
2013-07-06 18:56:00,73.3,69.9,29.91,SSE,147,0.0,1.0,89,0.05,,---,0.25,VWS V14.00,2013-07-06 22:56:00,
2013-07-06 18:57:00,73.3,69.9,29.91,SE,137,7.0,7.0,89,0.05,,---,0.25,VWS V14.00,2013-07-06 22:57:00,
2013-07-06 18:58:00,73.3,69.9,29.91,SE,133,0.0,7.0,89,0.05,,---,0.25,VWS V14.00,2013-07-06 22:58:00,
2013-07-06 19:01:00,73.5,70.4,29.90,SE,127,0.0,7.0,90,0.05,,---,0.25,VWS V14.00,2013-07-06 23:01:00,
2013-07-06 19:02:00,73.7,70.9,29.90,SE,127,0.0,6.0,91,0.00,,---,0.25,VWS V14.00,2013-07-06 23:02:00,
2013-07-06 19:05:00,73.7,70.9,29.90,SE,133,0.0,6.0,91,0.00,,---,0.25,VWS V14.00,2013-07-06 23:05:00,
2013-07-06 19:07:00,73.5,70.4,29.90,ESE,120,0.0,6.0,90,0.00,,---,0.25,VWS V14.00,2013-07-06 23:07:00,
2013-07-06 19:10:00,73.3,70.5,29.90,SE,144,0.0,6.0,91,0.00,,---,0.25,VWS V14.00,2013-07-06 23:10:00,
2013-07-06 19:12:00,73.0,69.9,29.90,ESE,107,0.0,6.0,90,0.00,,---,0.25,VWS V14.00,2013-07-06 23:12:00,
2013-07-06 19:13:00,73.0,69.9,29.90,SE,134,0.0,6.0,90,0.00,,---,0.25,VWS V14.00,2013-07-06 23:13:00,
2013-07-06 19:15:00,73.2,70.4,29.90,East,95,0.0,6.0,91,0.00,,---,0.25,VWS V14.00,2013-07-06 23:15:00,
2013-07-06 19:17:00,73.2,70.4,29.90,ESE,119,0.0,6.0,91,0.00,,---,0.25,VWS V14.00,2013-07-06 23:17:00,
2013-07-06 19:18:00,73.2,70.4,29.90,SE,133,0.0,6.0,91,0.00,,---,0.25,VWS V14.00,2013-07-06 23:18:00,
2013-07-06 19:20:00,73.2,70.4,29.90,ESE,116,1.0,6.0,91,0.00,,---,0.25,VWS V14.00,2013-07-06 23:20:00,
2013-07-06 19:22:00,73.2,70.4,29.90,East,95,0.0,6.0,91,0.00,,---,0.25,VWS V14.00,2013-07-06 23:22:00,
2013-07-06 19:23:00,73.2,70.4,29.90,East,95,0.0,6.0,91,0.00,,---,0.25,VWS V14.00,2013-07-06 23:23:00,
2013-07-06 19:25:00,73.0,70.2,29.90,East,99,0.0,6.0,91,0.00,,---,0.25,VWS V14.00,2013-07-06 23:25:00,
2013-07-06 19:27:00,72.8,70.0,29.90,ESE,120,7.0,7.0,91,0.00,,---,0.25,VWS V14.00,2013-07-06 23:27:00,
2013-07-06 19:30:00,72.7,69.9,29.90,SSE,148,0.0,7.0,91,0.00,,---,0.25,VWS V14.00,2013-07-06 23:30:00,
2013-07-06 19:33:00,72.5,69.7,29.90,SE,136,0.0,7.0,91,0.00,,---,0.25,VWS V14.00,2013-07-06 23:33:00,
2013-07-06 19:36:00,72.5,69.4,29.90,SE,141,0.0,7.0,90,0.00,,---,0.25,VWS V14.00,2013-07-06 23:36:00,
2013-07-06 19:39:00,72.5,69.7,29.90,East,92,0.0,7.0,91,0.00,,---,0.25,VWS V14.00,2013-07-06 23:39:00,
2013-07-06 19:41:00,72.5,69.7,29.90,East,99,0.0,7.0,91,0.00,,---,0.25,VWS V14.00,2013-07-06 23:41:00,
2013-07-06 19:42:00,72.5,69.7,29.90,East,96,0.0,7.0,91,0.00,,---,0.25,VWS V14.00,2013-07-06 23:42:00,
2013-07-06 19:46:00,72.5,69.4,29.89,ESE,102,0.0,7.0,90,0.00,,---,0.25,VWS V14.00,2013-07-06 23:46:00,
2013-07-06 19:47:00,72.5,69.4,29.89,East,88,0.0,7.0,90,0.00,,---,0.25,VWS V14.00,2013-07-06 23:47:00,
2013-07-06 19:48:00,72.5,69.7,29.89,East,89,0.0,7.0,91,0.00,,---,0.25,VWS V14.00,2013-07-06 23:48:00,
2013-07-06 19:51:00,72.5,69.4,29.89,East,89,0.0,7.0,90,0.00,,---,0.25,VWS V14.00,2013-07-06 23:51:00,
2013-07-06 19:53:00,72.7,69.9,29.89,East,89,0.0,7.0,91,0.00,,---,0.25,VWS V14.00,2013-07-06 23:53:00,
2013-07-06 19:54:00,72.7,69.9,29.89,East,89,0.0,7.0,91,0.00,,---,0.25,VWS V14.00,2013-07-06 23:54:00,
2013-07-06 19:56:00,72.7,69.9,29.89,East,89,0.0,7.0,91,0.00,,---,0.25,VWS V14.00,2013-07-06 23:56:00,
2013-07-06 19:58:00,72.7,69.9,29.89,SE,127,4.0,7.0,91,0.00,,---,0.25,VWS V14.00,2013-07-06 23:58:00,
2013-07-06 20:00:00,72.7,69.9,29.89,SE,127,0.0,7.0,91,0.00,,---,0.25,VWS V14.00,2013-07-07 00:00:00,
2013-07-06 20:01:00,72.7,69.9,29.89,SE,127,0.0,7.0,91,0.00,,---,0.25,VWS V14.00,2013-07-07 00:01:00,
2013-07-06 20:05:00,72.7,69.9,29.89,SE,127,0.0,0.0,91,0.00,,---,0.25,VWS V14.00,2013-07-07 00:05:00,
2013-07-06 20:06:00,72.7,69.9,29.89,SE,127,0.0,0.0,91,0.00,,---,0.25,VWS V14.00,2013-07-07 00:06:00,
2013-07-06 20:10:00,72.5,69.7,29.89,ESE,107,0.0,0.0,91,0.00,,---,0.25,VWS V14.00,2013-07-07 00:10:00,
2013-07-06 20:11:00,72.5,69.7,29.89,ESE,107,0.0,0.0,91,0.00,,---,0.25,VWS V14.00,2013-07-07 00:11:00,
2013-07-06 20:15:00,72.3,69.5,29.89,ESE,107,0.0,2.0,91,0.00,,---,0.25,VWS V14.00,2013-07-07 00:15:00,
2013-07-06 20:17:00,72.3,69.5,29.89,ESE,109,0.0,2.0,91,0.00,,---,0.25,VWS V14.00,2013-07-07 00:17:00,
2013-07-06 20:20:00,72.3,69.5,29.89,ESE,112,0.0,2.0,91,0.00,,---,0.25,VWS V14.00,2013-07-07 00:20:00,
2013-07-06 20:22:00,72.3,69.5,29.89,ESE,113,0.0,2.0,91,0.00,,---,0.25,VWS V14.00,2013-07-07 00:22:00,
2013-07-06 20:23:00,72.1,69.3,29.89,ESE,113,0.0,2.0,91,0.00,,---,0.25,VWS V14.00,2013-07-07 00:23:00,
2013-07-06 20:26:00,72.1,69.3,29.89,ESE,113,0.0,2.0,91,0.00,,---,0.25,VWS V14.00,2013-07-07 00:26:00,
2013-07-06 20:28:00,72.1,69.3,29.89,ESE,113,0.0,2.0,91,0.00,,---,0.25,VWS V14.00,2013-07-07 00:28:00,
2013-07-06 20:30:00,72.0,69.2,29.90,ESE,113,0.0,2.0,91,0.00,,---,0.25,VWS V14.00,2013-07-07 00:30:00,
2013-07-06 20:31:00,72.0,69.2,29.90,ESE,113,0.0,2.0,91,0.00,,---,0.25,VWS V14.00,2013-07-07 00:31:00,
2013-07-06 20:33:00,72.0,69.2,29.90,ESE,113,0.0,2.0,91,0.00,,---,0.25,VWS V14.00,2013-07-07 00:33:00,
2013-07-06 20:35:00,72.0,69.2,29.90,ESE,113,0.0,2.0,91,0.00,,---,0.25,VWS V14.00,2013-07-07 00:35:00,
2013-07-06 20:36:00,72.0,69.2,29.90,ESE,113,0.0,2.0,91,0.00,,---,0.25,VWS V14.00,2013-07-07 00:36:00,
2013-07-06 20:38:00,71.8,69.0,29.90,ESE,116,0.0,2.0,91,0.00,,---,0.25,VWS V14.00,2013-07-07 00:38:00,
2013-07-06 20:41:00,71.6,68.8,29.90,ESE,116,0.0,2.0,91,0.00,,---,0.25,VWS V14.00,2013-07-07 00:41:00,
2013-07-06 20:46:00,71.6,68.8,29.90,ESE,116,0.0,2.0,91,0.00,,---,0.25,VWS V14.00,2013-07-07 00:46:00,
2013-07-06 20:47:00,71.6,68.8,29.90,ESE,116,0.0,2.0,91,0.00,,---,0.25,VWS V14.00,2013-07-07 00:47:00,
2013-07-06 20:52:00,71.5,68.7,29.90,ESE,116,0.0,2.0,91,0.00,,---,0.25,VWS V14.00,2013-07-07 00:52:00,
2013-07-06 20:57:00,71.5,68.7,29.90,ESE,116,0.0,2.0,91,0.00,,---,0.25,VWS V14.00,2013-07-07 00:57:00,
2013-07-06 21:03:00,71.5,68.7,29.90,SE,127,0.0,0.0,91,0.00,,---,0.25,VWS V14.00,2013-07-07 01:03:00,
2013-07-06 21:04:00,71.5,68.7,29.90,SE,127,0.0,0.0,91,0.00,,---,0.25,VWS V14.00,2013-07-07 01:04:00,
2013-07-06 21:08:00,71.5,68.7,29.90,SE,127,0.0,0.0,91,0.00,,---,0.25,VWS V14.00,2013-07-07 01:08:00,
2013-07-06 21:10:00,71.5,68.7,29.90,SE,127,0.0,0.0,91,0.00,,---,0.25,VWS V14.00,2013-07-07 01:10:00,
2013-07-06 21:13:00,71.5,69.1,29.90,SE,145,0.0,0.0,92,0.00,,---,0.25,VWS V14.00,2013-07-07 01:13:00,
2013-07-06 21:14:00,71.5,69.1,29.90,South,188,0.0,1.0,92,0.00,,---,0.25,VWS V14.00,2013-07-07 01:14:00,
2013-07-06 21:16:00,71.5,69.1,29.90,South,188,0.0,1.0,92,0.00,,---,0.25,VWS V14.00,2013-07-07 01:16:00,
2013-07-06 21:19:00,71.5,69.1,29.90,South,188,0.0,1.0,92,0.00,,---,0.25,VWS V14.00,2013-07-07 01:19:00,
2013-07-06 21:21:00,71.5,69.1,29.90,South,188,0.0,1.0,92,0.00,,---,0.25,VWS V14.00,2013-07-07 01:21:00,
2013-07-06 21:24:00,71.5,69.1,29.90,South,188,0.0,1.0,92,0.00,,---,0.25,VWS V14.00,2013-07-07 01:24:00,
2013-07-06 21:26:00,71.5,69.1,29.90,South,188,0.0,1.0,92,0.00,,---,0.25,VWS V14.00,2013-07-07 01:26:00,
2013-07-06 21:29:00,71.3,68.9,29.90,South,188,0.0,1.0,92,0.00,,---,0.25,VWS V14.00,2013-07-07 01:29:00,
2013-07-06 21:32:00,71.3,68.9,29.90,South,188,0.0,1.0,92,0.00,,---,0.25,VWS V14.00,2013-07-07 01:32:00,
2013-07-06 21:36:00,71.3,68.9,29.90,South,188,0.0,1.0,92,0.00,,---,0.25,VWS V14.00,2013-07-07 01:36:00,
2013-07-06 21:37:00,71.3,68.9,29.90,South,188,0.0,1.0,92,0.00,,---,0.25,VWS V14.00,2013-07-07 01:37:00,
2013-07-06 21:41:00,71.1,68.7,29.90,South,188,0.0,1.0,92,0.01,,---,0.26,VWS V14.00,2013-07-07 01:41:00,
2013-07-06 21:42:00,71.1,68.7,29.90,South,188,0.0,1.0,92,0.01,,---,0.26,VWS V14.00,2013-07-07 01:42:00,
2013-07-06 21:43:00,71.1,68.7,29.90,South,188,0.0,1.0,92,0.01,,---,0.26,VWS V14.00,2013-07-07 01:43:00,
2013-07-06 21:47:00,71.1,68.7,29.90,South,188,0.0,1.0,92,0.01,,---,0.26,VWS V14.00,2013-07-07 01:47:00,
2013-07-06 21:48:00,71.1,68.7,29.90,South,188,0.0,1.0,92,0.01,,---,0.26,VWS V14.00,2013-07-07 01:48:00,
2013-07-06 21:49:00,71.1,69.0,29.90,South,188,0.0,1.0,93,0.01,,---,0.26,VWS V14.00,2013-07-07 01:49:00,
2013-07-06 21:52:00,71.3,69.2,29.90,South,188,0.0,1.0,93,0.01,,---,0.26,VWS V14.00,2013-07-07 01:52:00,
2013-07-06 21:53:00,71.3,69.2,29.90,South,188,0.0,1.0,93,0.01,,---,0.26,VWS V14.00,2013-07-07 01:53:00,
2013-07-06 21:54:00,71.3,69.2,29.90,South,188,0.0,1.0,93,0.01,,---,0.26,VWS V14.00,2013-07-07 01:54:00,
2013-07-06 21:58:00,71.3,69.2,29.90,South,188,0.0,1.0,93,0.01,,---,0.26,VWS V14.00,2013-07-07 01:58:00,
2013-07-06 21:59:00,71.3,69.2,29.90,South,188,0.0,1.0,93,0.01,,---,0.26,VWS V14.00,2013-07-07 01:59:00,
2013-07-06 22:00:00,71.3,69.2,29.90,South,188,0.0,1.0,93,0.01,,---,0.26,VWS V14.00,2013-07-07 02:00:00,
2013-07-06 22:03:00,71.3,69.2,29.90,South,179,0.0,0.0,93,0.01,,---,0.26,VWS V14.00,2013-07-07 02:03:00,
2013-07-06 22:05:00,71.3,69.2,29.90,South,178,0.0,0.0,93,0.01,,---,0.26,VWS V14.00,2013-07-07 02:05:00,
2013-07-06 22:09:00,71.3,69.2,29.90,ENE,75,0.0,2.0,93,0.01,,---,0.26,VWS V14.00,2013-07-07 02:09:00,
2013-07-06 22:10:00,71.3,69.2,29.90,ENE,68,0.0,2.0,93,0.01,,---,0.26,VWS V14.00,2013-07-07 02:10:00,
2013-07-06 22:11:00,71.3,69.2,29.90,ENE,65,0.0,2.0,93,0.01,,---,0.26,VWS V14.00,2013-07-07 02:11:00,
2013-07-06 22:15:00,71.3,69.5,29.90,ENE,68,0.0,2.0,94,0.01,,---,0.26,VWS V14.00,2013-07-07 02:15:00,
2013-07-06 22:16:00,71.1,69.3,29.90,ENE,68,0.0,2.0,94,0.01,,---,0.26,VWS V14.00,2013-07-07 02:16:00,
2013-07-06 22:20:00,71.1,69.3,29.90,ENE,68,0.0,2.0,94,0.01,,---,0.26,VWS V14.00,2013-07-07 02:20:00,
2013-07-06 22:22:00,70.9,69.1,29.90,ENE,68,0.0,2.0,94,0.01,,---,0.26,VWS V14.00,2013-07-07 02:22:00,
2013-07-06 22:26:00,70.9,69.1,29.90,SSW,199,4.0,4.0,94,0.01,,---,0.26,VWS V14.00,2013-07-07 02:26:00,
2013-07-06 22:27:00,70.9,69.1,29.90,SSW,199,0.0,4.0,94,0.01,,---,0.26,VWS V14.00,2013-07-07 02:27:00,
2013-07-06 22:31:00,70.9,69.1,29.91,SSW,199,0.0,4.0,94,0.01,,---,0.26,VWS V14.00,2013-07-07 02:31:00,
2013-07-06 22:32:00,70.9,69.1,29.91,SSW,199,0.0,4.0,94,0.01,,---,0.26,VWS V14.00,2013-07-07 02:32:00,
2013-07-06 22:34:00,70.9,69.1,29.91,SSW,199,0.0,4.0,94,0.01,,---,0.26,VWS V14.00,2013-07-07 02:34:00,
2013-07-06 22:37:00,70.9,69.1,29.91,SSW,199,0.0,4.0,94,0.01,,---,0.26,VWS V14.00,2013-07-07 02:37:00,
2013-07-06 22:38:00,70.9,69.1,29.91,SSW,199,0.0,4.0,94,0.01,,---,0.26,VWS V14.00,2013-07-07 02:38:00,
2013-07-06 22:39:00,70.9,69.1,29.91,SSW,199,0.0,4.0,94,0.01,,---,0.26,VWS V14.00,2013-07-07 02:39:00,
2013-07-06 22:42:00,70.9,69.1,29.91,SSW,206,0.0,4.0,94,0.01,,---,0.26,VWS V14.00,2013-07-07 02:42:00,
2013-07-06 22:44:00,70.9,69.1,29.91,SSW,206,0.0,4.0,94,0.01,,---,0.26,VWS V14.00,2013-07-07 02:44:00,
2013-07-06 22:46:00,70.9,69.1,29.92,SSW,206,0.0,4.0,94,0.01,,---,0.26,VWS V14.00,2013-07-07 02:46:00,
2013-07-06 22:48:00,70.9,69.4,29.92,SSW,206,0.0,4.0,95,0.01,,---,0.26,VWS V14.00,2013-07-07 02:48:00,
2013-07-06 22:49:00,70.9,69.1,29.92,SSW,206,0.0,4.0,94,0.01,,---,0.26,VWS V14.00,2013-07-07 02:49:00,
2013-07-06 22:51:00,70.9,69.4,29.92,SSW,206,0.0,4.0,95,0.01,,---,0.26,VWS V14.00,2013-07-07 02:51:00,
2013-07-06 22:53:00,70.8,69.3,29.92,SSW,206,0.0,4.0,95,0.01,,---,0.26,VWS V14.00,2013-07-07 02:53:00,
2013-07-06 22:54:00,70.8,69.3,29.92,SSW,206,0.0,4.0,95,0.01,,---,0.26,VWS V14.00,2013-07-07 02:54:00,
2013-07-06 22:56:00,70.8,69.3,29.92,SSW,206,0.0,4.0,95,0.01,,---,0.26,VWS V14.00,2013-07-07 02:56:00,
2013-07-06 22:58:00,70.8,69.3,29.92,SSW,206,0.0,4.0,95,0.01,,---,0.26,VWS V14.00,2013-07-07 02:58:00,
2013-07-06 23:00:00,70.8,69.3,29.92,SSW,206,0.0,4.0,95,0.01,,---,0.26,VWS V14.00,2013-07-07 03:00:00,
2013-07-06 23:01:00,70.8,69.3,29.92,SSW,206,0.0,0.0,95,0.00,,---,0.26,VWS V14.00,2013-07-07 03:01:00,
2013-07-06 23:04:00,70.8,69.3,29.92,SSW,206,0.0,0.0,95,0.00,,---,0.26,VWS V14.00,2013-07-07 03:04:00,
2013-07-06 23:05:00,70.8,69.3,29.92,SSW,206,0.0,0.0,95,0.00,,---,0.26,VWS V14.00,2013-07-07 03:05:00,
2013-07-06 23:07:00,70.6,69.1,29.92,SSW,206,0.0,0.0,95,0.00,,---,0.26,VWS V14.00,2013-07-07 03:07:00,
2013-07-06 23:09:00,70.6,69.1,29.92,SSW,206,0.0,0.0,95,0.00,,---,0.26,VWS V14.00,2013-07-07 03:09:00,
2013-07-06 23:11:00,70.6,69.1,29.92,SSW,206,0.0,0.0,95,0.00,,---,0.26,VWS V14.00,2013-07-07 03:11:00,
2013-07-06 23:13:00,70.6,69.1,29.92,SSW,206,0.0,0.0,95,0.00,,---,0.26,VWS V14.00,2013-07-07 03:13:00,
2013-07-06 23:14:00,70.6,69.1,29.92,SSW,206,0.0,0.0,95,0.00,,---,0.26,VWS V14.00,2013-07-07 03:14:00,
2013-07-06 23:16:00,70.6,69.1,29.91,SSW,206,0.0,0.0,95,0.00,,---,0.26,VWS V14.00,2013-07-07 03:16:00,
2013-07-06 23:18:00,70.6,69.1,29.91,SSW,206,0.0,0.0,95,0.00,,---,0.26,VWS V14.00,2013-07-07 03:18:00,
2013-07-06 23:20:00,70.6,69.1,29.91,SSW,206,0.0,0.0,95,0.00,,---,0.26,VWS V14.00,2013-07-07 03:20:00,
2013-07-06 23:22:00,70.6,69.1,29.91,SSW,206,0.0,0.0,95,0.00,,---,0.26,VWS V14.00,2013-07-07 03:22:00,
2013-07-06 23:23:00,70.6,69.1,29.91,SSW,206,0.0,0.0,95,0.00,,---,0.26,VWS V14.00,2013-07-07 03:23:00,
2013-07-06 23:25:00,70.6,69.1,29.91,SSW,206,0.0,0.0,95,0.00,,---,0.26,VWS V14.00,2013-07-07 03:25:00,
2013-07-06 23:28:00,70.6,69.1,29.91,SSW,206,0.0,0.0,95,0.00,,---,0.26,VWS V14.00,2013-07-07 03:28:00,
2013-07-06 23:30:00,70.6,69.1,29.91,SSW,206,0.0,0.0,95,0.00,,---,0.26,VWS V14.00,2013-07-07 03:30:00,
2013-07-06 23:34:00,70.6,69.1,29.92,SSW,206,0.0,0.0,95,0.00,,---,0.26,VWS V14.00,2013-07-07 03:34:00,
2013-07-06 23:35:00,70.6,69.1,29.92,SSW,206,0.0,0.0,95,0.00,,---,0.26,VWS V14.00,2013-07-07 03:35:00,
2013-07-06 23:39:00,70.6,69.1,29.92,SSW,206,0.0,1.0,95,0.00,,---,0.26,VWS V14.00,2013-07-07 03:39:00,
2013-07-06 23:40:00,70.6,69.1,29.92,SSW,206,0.0,1.0,95,0.00,,---,0.26,VWS V14.00,2013-07-07 03:40:00,
2013-07-06 23:41:00,70.6,69.1,29.92,SSW,206,0.0,1.0,95,0.00,,---,0.26,VWS V14.00,2013-07-07 03:41:00,
2013-07-06 23:44:00,70.6,69.1,29.92,SSW,206,0.0,1.0,95,0.00,,---,0.26,VWS V14.00,2013-07-07 03:44:00,
2013-07-06 23:46:00,70.6,69.4,29.92,SSW,206,0.0,1.0,96,0.00,,---,0.26,VWS V14.00,2013-07-07 03:46:00,
2013-07-06 23:49:00,70.6,69.4,29.92,SSW,206,0.0,1.0,96,0.00,,---,0.26,VWS V14.00,2013-07-07 03:49:00,
2013-07-06 23:51:00,70.6,69.4,29.92,SSW,208,0.0,1.0,96,0.00,,---,0.26,VWS V14.00,2013-07-07 03:51:00,
2013-07-06 23:54:00,70.6,69.4,29.92,SSW,199,0.0,1.0,96,0.00,,---,0.26,VWS V14.00,2013-07-07 03:54:00,
2013-07-06 23:56:00,70.6,69.4,29.92,SSE,168,0.0,1.0,96,0.00,,---,0.26,VWS V14.00,2013-07-07 03:56:00,
2013-07-06 23:58:00,70.6,69.4,29.92,SSE,168,0.0,1.0,96,0.00,,---,0.26,VWS V14.00,2013-07-07 03:58:00,